<?xml version="1.0" encoding="UTF-8" standalone="no" ?>
<gpx xmlns="http://www.topografix.com/GPX/1/1" xmlns:xsi="http://www.w3.org/2001/XMLSchema-instance" xsi:schemaLocation="http://www.topografix.com/GPX/1/1 http://www.topografix.com/GPX/1/1/gpx.xsd" version="1.1" creator="VisuGPX - https://www.visugpx.com">
  <metadata>
    <name>Echillais 08K</name>
  </metadata>
  <trk>
    <name><![CDATA[Echillais 08K]]></name>
    <trkseg>
      <trkpt lat="45.89821" lon="-0.95512">
        <ele>22.73</ele>
        <time>2014-04-02T12:49:01Z</time>
      </trkpt>
      <trkpt lat="45.89824" lon="-0.95511">
        <ele>22.25</ele>
        <time>2014-04-02T12:49:42Z</time>
      </trkpt>
      <trkpt lat="45.89833" lon="-0.95506">
        <ele>22.25</ele>
        <time>2014-04-02T12:49:54Z</time>
      </trkpt>
      <trkpt lat="45.89838" lon="-0.95496">
        <ele>21.77</ele>
        <time>2014-04-02T12:50:04Z</time>
      </trkpt>
      <trkpt lat="45.89849" lon="-0.95492">
        <ele>22.25</ele>
        <time>2014-04-02T12:50:13Z</time>
      </trkpt>
      <trkpt lat="45.89858" lon="-0.9549">
        <ele>22.25</ele>
        <time>2014-04-02T12:50:20Z</time>
      </trkpt>
      <trkpt lat="45.89864" lon="-0.95502">
        <ele>22.25</ele>
        <time>2014-04-02T12:50:29Z</time>
      </trkpt>
      <trkpt lat="45.8987" lon="-0.95514">
        <ele>21.77</ele>
        <time>2014-04-02T12:50:36Z</time>
      </trkpt>
      <trkpt lat="45.89875" lon="-0.95527">
        <ele>21.77</ele>
        <time>2014-04-02T12:50:45Z</time>
      </trkpt>
      <trkpt lat="45.89881" lon="-0.95541">
        <ele>21.77</ele>
        <time>2014-04-02T12:50:53Z</time>
      </trkpt>
      <trkpt lat="45.89887" lon="-0.95552">
        <ele>21.77</ele>
        <time>2014-04-02T12:51:02Z</time>
      </trkpt>
      <trkpt lat="45.89892" lon="-0.95565">
        <ele>21.77</ele>
        <time>2014-04-02T12:51:10Z</time>
      </trkpt>
      <trkpt lat="45.89897" lon="-0.95576">
        <ele>22.25</ele>
        <time>2014-04-02T12:51:18Z</time>
      </trkpt>
      <trkpt lat="45.89902" lon="-0.95587">
        <ele>22.25</ele>
        <time>2014-04-02T12:51:27Z</time>
      </trkpt>
      <trkpt lat="45.89907" lon="-0.95601">
        <ele>22.25</ele>
        <time>2014-04-02T12:51:37Z</time>
      </trkpt>
      <trkpt lat="45.89913" lon="-0.95614">
        <ele>21.77</ele>
        <time>2014-04-02T12:51:45Z</time>
      </trkpt>
      <trkpt lat="45.89918" lon="-0.95625">
        <ele>21.77</ele>
        <time>2014-04-02T12:51:53Z</time>
      </trkpt>
      <trkpt lat="45.89923" lon="-0.95638">
        <ele>20.81</ele>
        <time>2014-04-02T12:52:03Z</time>
      </trkpt>
      <trkpt lat="45.89932" lon="-0.95647">
        <ele>21.77</ele>
        <time>2014-04-02T12:52:10Z</time>
      </trkpt>
      <trkpt lat="45.89941" lon="-0.95649">
        <ele>21.29</ele>
        <time>2014-04-02T12:52:18Z</time>
      </trkpt>
      <trkpt lat="45.89951" lon="-0.9565">
        <ele>21.29</ele>
        <time>2014-04-02T12:52:25Z</time>
      </trkpt>
      <trkpt lat="45.8996" lon="-0.95651">
        <ele>21.29</ele>
        <time>2014-04-02T12:52:33Z</time>
      </trkpt>
      <trkpt lat="45.89968" lon="-0.95652">
        <ele>20.81</ele>
        <time>2014-04-02T12:52:41Z</time>
      </trkpt>
      <trkpt lat="45.89979" lon="-0.95649">
        <ele>21.77</ele>
        <time>2014-04-02T12:52:52Z</time>
      </trkpt>
      <trkpt lat="45.8999" lon="-0.95649">
        <ele>22.25</ele>
        <time>2014-04-02T12:53:00Z</time>
      </trkpt>
      <trkpt lat="45.90001" lon="-0.9565">
        <ele>21.29</ele>
        <time>2014-04-02T12:53:07Z</time>
      </trkpt>
      <trkpt lat="45.9001" lon="-0.95654">
        <ele>21.29</ele>
        <time>2014-04-02T12:53:14Z</time>
      </trkpt>
      <trkpt lat="45.90019" lon="-0.9566">
        <ele>22.25</ele>
        <time>2014-04-02T12:53:25Z</time>
      </trkpt>
      <trkpt lat="45.90029" lon="-0.95668">
        <ele>21.77</ele>
        <time>2014-04-02T12:53:33Z</time>
      </trkpt>
      <trkpt lat="45.90039" lon="-0.95669">
        <ele>21.29</ele>
        <time>2014-04-02T12:53:39Z</time>
      </trkpt>
      <trkpt lat="45.90046" lon="-0.95678">
        <ele>22.25</ele>
        <time>2014-04-02T12:53:49Z</time>
      </trkpt>
      <trkpt lat="45.90058" lon="-0.95685">
        <ele>22.25</ele>
        <time>2014-04-02T12:53:59Z</time>
      </trkpt>
      <trkpt lat="45.90068" lon="-0.95693">
        <ele>22.25</ele>
        <time>2014-04-02T12:54:08Z</time>
      </trkpt>
      <trkpt lat="45.90077" lon="-0.95697">
        <ele>22.25</ele>
        <time>2014-04-02T12:54:14Z</time>
      </trkpt>
      <trkpt lat="45.90083" lon="-0.95706">
        <ele>22.25</ele>
        <time>2014-04-02T12:54:22Z</time>
      </trkpt>
      <trkpt lat="45.9009" lon="-0.95717">
        <ele>22.25</ele>
        <time>2014-04-02T12:54:31Z</time>
      </trkpt>
      <trkpt lat="45.90096" lon="-0.95727">
        <ele>21.77</ele>
        <time>2014-04-02T12:54:40Z</time>
      </trkpt>
      <trkpt lat="45.90103" lon="-0.95738">
        <ele>22.25</ele>
        <time>2014-04-02T12:54:49Z</time>
      </trkpt>
      <trkpt lat="45.90111" lon="-0.95751">
        <ele>21.77</ele>
        <time>2014-04-02T12:54:58Z</time>
      </trkpt>
      <trkpt lat="45.9012" lon="-0.95761">
        <ele>21.77</ele>
        <time>2014-04-02T12:55:05Z</time>
      </trkpt>
      <trkpt lat="45.9013" lon="-0.95771">
        <ele>21.77</ele>
        <time>2014-04-02T12:55:14Z</time>
      </trkpt>
      <trkpt lat="45.90136" lon="-0.95781">
        <ele>21.77</ele>
        <time>2014-04-02T12:55:24Z</time>
      </trkpt>
      <trkpt lat="45.90145" lon="-0.95791">
        <ele>22.25</ele>
        <time>2014-04-02T12:55:33Z</time>
      </trkpt>
      <trkpt lat="45.90154" lon="-0.95799">
        <ele>21.77</ele>
        <time>2014-04-02T12:55:40Z</time>
      </trkpt>
      <trkpt lat="45.90162" lon="-0.95804">
        <ele>22.25</ele>
        <time>2014-04-02T12:55:51Z</time>
      </trkpt>
      <trkpt lat="45.90178" lon="-0.95817">
        <ele>21.29</ele>
        <time>2014-04-02T12:56:10Z</time>
      </trkpt>
      <trkpt lat="45.90197" lon="-0.95824">
        <ele>21.77</ele>
        <time>2014-04-02T12:56:36Z</time>
      </trkpt>
      <trkpt lat="45.90211" lon="-0.95826">
        <ele>21.29</ele>
        <time>2014-04-02T12:56:53Z</time>
      </trkpt>
      <trkpt lat="45.90221" lon="-0.95824">
        <ele>20.81</ele>
        <time>2014-04-02T12:57:11Z</time>
      </trkpt>
      <trkpt lat="45.90228" lon="-0.95825">
        <ele>20.32</ele>
        <time>2014-04-02T12:57:21Z</time>
      </trkpt>
      <trkpt lat="45.90238" lon="-0.95822">
        <ele>19.84</ele>
        <time>2014-04-02T12:57:29Z</time>
      </trkpt>
      <trkpt lat="45.90249" lon="-0.95821">
        <ele>20.81</ele>
        <time>2014-04-02T12:57:38Z</time>
      </trkpt>
      <trkpt lat="45.9026" lon="-0.95821">
        <ele>20.32</ele>
        <time>2014-04-02T12:57:46Z</time>
      </trkpt>
      <trkpt lat="45.90269" lon="-0.95819">
        <ele>20.32</ele>
        <time>2014-04-02T12:57:53Z</time>
      </trkpt>
      <trkpt lat="45.90278" lon="-0.9582">
        <ele>14.56</ele>
        <time>2014-04-02T12:58:01Z</time>
      </trkpt>
      <trkpt lat="45.90287" lon="-0.95821">
        <ele>20.32</ele>
        <time>2014-04-02T12:58:09Z</time>
      </trkpt>
      <trkpt lat="45.90296" lon="-0.95824">
        <ele>20.32</ele>
        <time>2014-04-02T12:58:17Z</time>
      </trkpt>
      <trkpt lat="45.90305" lon="-0.95826">
        <ele>20.81</ele>
        <time>2014-04-02T12:58:25Z</time>
      </trkpt>
      <trkpt lat="45.90314" lon="-0.9583">
        <ele>19.36</ele>
        <time>2014-04-02T12:58:34Z</time>
      </trkpt>
      <trkpt lat="45.90325" lon="-0.95831">
        <ele>18.88</ele>
        <time>2014-04-02T12:58:43Z</time>
      </trkpt>
      <trkpt lat="45.90335" lon="-0.95832">
        <ele>18.88</ele>
        <time>2014-04-02T12:58:53Z</time>
      </trkpt>
      <trkpt lat="45.90345" lon="-0.95836">
        <ele>18.4</ele>
        <time>2014-04-02T12:59:01Z</time>
      </trkpt>
      <trkpt lat="45.90357" lon="-0.95838">
        <ele>18.4</ele>
        <time>2014-04-02T12:59:09Z</time>
      </trkpt>
      <trkpt lat="45.90365" lon="-0.95839">
        <ele>18.88</ele>
        <time>2014-04-02T12:59:17Z</time>
      </trkpt>
      <trkpt lat="45.90375" lon="-0.95841">
        <ele>17.92</ele>
        <time>2014-04-02T12:59:26Z</time>
      </trkpt>
      <trkpt lat="45.90385" lon="-0.95842">
        <ele>17.92</ele>
        <time>2014-04-02T12:59:35Z</time>
      </trkpt>
      <trkpt lat="45.90397" lon="-0.95843">
        <ele>17.44</ele>
        <time>2014-04-02T12:59:44Z</time>
      </trkpt>
      <trkpt lat="45.90407" lon="-0.95845">
        <ele>17.92</ele>
        <time>2014-04-02T12:59:53Z</time>
      </trkpt>
      <trkpt lat="45.90417" lon="-0.95846">
        <ele>17.92</ele>
        <time>2014-04-02T13:00:01Z</time>
      </trkpt>
      <trkpt lat="45.90427" lon="-0.95847">
        <ele>17.44</ele>
        <time>2014-04-02T13:00:10Z</time>
      </trkpt>
      <trkpt lat="45.90437" lon="-0.95847">
        <ele>17.44</ele>
        <time>2014-04-02T13:00:18Z</time>
      </trkpt>
      <trkpt lat="45.90446" lon="-0.95847">
        <ele>16.96</ele>
        <time>2014-04-02T13:00:27Z</time>
      </trkpt>
      <trkpt lat="45.90456" lon="-0.95847">
        <ele>16.48</ele>
        <time>2014-04-02T13:00:35Z</time>
      </trkpt>
      <trkpt lat="45.90466" lon="-0.95847">
        <ele>16.96</ele>
        <time>2014-04-02T13:00:44Z</time>
      </trkpt>
      <trkpt lat="45.90476" lon="-0.9585">
        <ele>16.48</ele>
        <time>2014-04-02T13:00:51Z</time>
      </trkpt>
      <trkpt lat="45.90487" lon="-0.9585">
        <ele>16.48</ele>
        <time>2014-04-02T13:01:01Z</time>
      </trkpt>
      <trkpt lat="45.90497" lon="-0.95853">
        <ele>16.96</ele>
        <time>2014-04-02T13:01:09Z</time>
      </trkpt>
      <trkpt lat="45.90508" lon="-0.95859">
        <ele>16.96</ele>
        <time>2014-04-02T13:01:18Z</time>
      </trkpt>
      <trkpt lat="45.90518" lon="-0.95861">
        <ele>16.96</ele>
        <time>2014-04-02T13:01:26Z</time>
      </trkpt>
      <trkpt lat="45.90529" lon="-0.95863">
        <ele>16.96</ele>
        <time>2014-04-02T13:01:36Z</time>
      </trkpt>
      <trkpt lat="45.9054" lon="-0.95865">
        <ele>16.96</ele>
        <time>2014-04-02T13:01:48Z</time>
      </trkpt>
      <trkpt lat="45.90552" lon="-0.95868">
        <ele>17.44</ele>
        <time>2014-04-02T13:01:56Z</time>
      </trkpt>
      <trkpt lat="45.90563" lon="-0.95872">
        <ele>17.92</ele>
        <time>2014-04-02T13:02:04Z</time>
      </trkpt>
      <trkpt lat="45.90572" lon="-0.95875">
        <ele>17.44</ele>
        <time>2014-04-02T13:02:13Z</time>
      </trkpt>
      <trkpt lat="45.90582" lon="-0.95875">
        <ele>17.44</ele>
        <time>2014-04-02T13:02:22Z</time>
      </trkpt>
      <trkpt lat="45.90592" lon="-0.95879">
        <ele>16.96</ele>
        <time>2014-04-02T13:02:32Z</time>
      </trkpt>
      <trkpt lat="45.90602" lon="-0.9588">
        <ele>16.96</ele>
        <time>2014-04-02T13:02:42Z</time>
      </trkpt>
      <trkpt lat="45.90613" lon="-0.95881">
        <ele>17.44</ele>
        <time>2014-04-02T13:02:50Z</time>
      </trkpt>
      <trkpt lat="45.90623" lon="-0.95883">
        <ele>17.44</ele>
        <time>2014-04-02T13:02:58Z</time>
      </trkpt>
      <trkpt lat="45.90633" lon="-0.95884">
        <ele>17.44</ele>
        <time>2014-04-02T13:03:07Z</time>
      </trkpt>
      <trkpt lat="45.90644" lon="-0.95885">
        <ele>17.44</ele>
        <time>2014-04-02T13:03:16Z</time>
      </trkpt>
      <trkpt lat="45.90655" lon="-0.95886">
        <ele>16.96</ele>
        <time>2014-04-02T13:03:26Z</time>
      </trkpt>
      <trkpt lat="45.90665" lon="-0.95886">
        <ele>17.44</ele>
        <time>2014-04-02T13:03:35Z</time>
      </trkpt>
      <trkpt lat="45.90677" lon="-0.95888">
        <ele>16.96</ele>
        <time>2014-04-02T13:03:44Z</time>
      </trkpt>
      <trkpt lat="45.90688" lon="-0.95889">
        <ele>16.96</ele>
        <time>2014-04-02T13:03:54Z</time>
      </trkpt>
      <trkpt lat="45.907" lon="-0.95891">
        <ele>16.48</ele>
        <time>2014-04-02T13:04:02Z</time>
      </trkpt>
      <trkpt lat="45.90711" lon="-0.95892">
        <ele>16.48</ele>
        <time>2014-04-02T13:04:12Z</time>
      </trkpt>
      <trkpt lat="45.90722" lon="-0.9589">
        <ele>16.96</ele>
        <time>2014-04-02T13:04:22Z</time>
      </trkpt>
      <trkpt lat="45.90732" lon="-0.95891">
        <ele>16.48</ele>
        <time>2014-04-02T13:04:29Z</time>
      </trkpt>
      <trkpt lat="45.90741" lon="-0.95891">
        <ele>16</ele>
        <time>2014-04-02T13:04:37Z</time>
      </trkpt>
      <trkpt lat="45.90751" lon="-0.95894">
        <ele>16</ele>
        <time>2014-04-02T13:04:47Z</time>
      </trkpt>
      <trkpt lat="45.90763" lon="-0.95896">
        <ele>15.52</ele>
        <time>2014-04-02T13:04:56Z</time>
      </trkpt>
      <trkpt lat="45.90774" lon="-0.95896">
        <ele>15.52</ele>
        <time>2014-04-02T13:05:03Z</time>
      </trkpt>
      <trkpt lat="45.90784" lon="-0.95896">
        <ele>14.56</ele>
        <time>2014-04-02T13:05:11Z</time>
      </trkpt>
      <trkpt lat="45.90793" lon="-0.95895">
        <ele>14.56</ele>
        <time>2014-04-02T13:05:19Z</time>
      </trkpt>
      <trkpt lat="45.90803" lon="-0.95892">
        <ele>13.6</ele>
        <time>2014-04-02T13:05:32Z</time>
      </trkpt>
      <trkpt lat="45.90816" lon="-0.9589">
        <ele>13.6</ele>
        <time>2014-04-02T13:05:40Z</time>
      </trkpt>
      <trkpt lat="45.90825" lon="-0.95882">
        <ele>14.56</ele>
        <time>2014-04-02T13:05:50Z</time>
      </trkpt>
      <trkpt lat="45.90835" lon="-0.95874">
        <ele>14.08</ele>
        <time>2014-04-02T13:05:59Z</time>
      </trkpt>
      <trkpt lat="45.90844" lon="-0.95865">
        <ele>14.56</ele>
        <time>2014-04-02T13:06:10Z</time>
      </trkpt>
      <trkpt lat="45.90848" lon="-0.95852">
        <ele>15.04</ele>
        <time>2014-04-02T13:06:19Z</time>
      </trkpt>
      <trkpt lat="45.90853" lon="-0.95844">
        <ele>15.52</ele>
        <time>2014-04-02T13:06:27Z</time>
      </trkpt>
      <trkpt lat="45.90862" lon="-0.95834">
        <ele>16.48</ele>
        <time>2014-04-02T13:06:38Z</time>
      </trkpt>
      <trkpt lat="45.90869" lon="-0.95823">
        <ele>16.48</ele>
        <time>2014-04-02T13:06:48Z</time>
      </trkpt>
      <trkpt lat="45.90879" lon="-0.95816">
        <ele>16.96</ele>
        <time>2014-04-02T13:06:56Z</time>
      </trkpt>
      <trkpt lat="45.90889" lon="-0.95811">
        <ele>16.96</ele>
        <time>2014-04-02T13:07:03Z</time>
      </trkpt>
      <trkpt lat="45.90897" lon="-0.95804">
        <ele>16.48</ele>
        <time>2014-04-02T13:07:11Z</time>
      </trkpt>
      <trkpt lat="45.90905" lon="-0.95798">
        <ele>17.44</ele>
        <time>2014-04-02T13:07:19Z</time>
      </trkpt>
      <trkpt lat="45.90912" lon="-0.9579">
        <ele>17.44</ele>
        <time>2014-04-02T13:07:27Z</time>
      </trkpt>
      <trkpt lat="45.9092" lon="-0.95782">
        <ele>17.92</ele>
        <time>2014-04-02T13:07:37Z</time>
      </trkpt>
      <trkpt lat="45.90929" lon="-0.95773">
        <ele>17.44</ele>
        <time>2014-04-02T13:07:47Z</time>
      </trkpt>
      <trkpt lat="45.90937" lon="-0.95764">
        <ele>17.44</ele>
        <time>2014-04-02T13:07:56Z</time>
      </trkpt>
      <trkpt lat="45.90945" lon="-0.95755">
        <ele>17.92</ele>
        <time>2014-04-02T13:08:04Z</time>
      </trkpt>
      <trkpt lat="45.90952" lon="-0.95745">
        <ele>17.44</ele>
        <time>2014-04-02T13:08:14Z</time>
      </trkpt>
      <trkpt lat="45.90961" lon="-0.95735">
        <ele>17.92</ele>
        <time>2014-04-02T13:08:24Z</time>
      </trkpt>
      <trkpt lat="45.9097" lon="-0.95727">
        <ele>17.92</ele>
        <time>2014-04-02T13:08:32Z</time>
      </trkpt>
      <trkpt lat="45.90978" lon="-0.9572">
        <ele>17.92</ele>
        <time>2014-04-02T13:08:40Z</time>
      </trkpt>
      <trkpt lat="45.90986" lon="-0.95712">
        <ele>17.92</ele>
        <time>2014-04-02T13:08:48Z</time>
      </trkpt>
      <trkpt lat="45.90996" lon="-0.95703">
        <ele>17.92</ele>
        <time>2014-04-02T13:09:00Z</time>
      </trkpt>
      <trkpt lat="45.91006" lon="-0.95694">
        <ele>17.44</ele>
        <time>2014-04-02T13:09:09Z</time>
      </trkpt>
      <trkpt lat="45.91015" lon="-0.95685">
        <ele>17.44</ele>
        <time>2014-04-02T13:09:17Z</time>
      </trkpt>
      <trkpt lat="45.91024" lon="-0.95679">
        <ele>17.44</ele>
        <time>2014-04-02T13:09:24Z</time>
      </trkpt>
      <trkpt lat="45.9103" lon="-0.95671">
        <ele>16.96</ele>
        <time>2014-04-02T13:09:31Z</time>
      </trkpt>
      <trkpt lat="45.91039" lon="-0.95667">
        <ele>16.96</ele>
        <time>2014-04-02T13:09:37Z</time>
      </trkpt>
      <trkpt lat="45.91046" lon="-0.9566">
        <ele>17.44</ele>
        <time>2014-04-02T13:09:45Z</time>
      </trkpt>
      <trkpt lat="45.91053" lon="-0.95657">
        <ele>17.92</ele>
        <time>2014-04-02T13:09:55Z</time>
      </trkpt>
      <trkpt lat="45.9106" lon="-0.95648">
        <ele>17.44</ele>
        <time>2014-04-02T13:10:02Z</time>
      </trkpt>
      <trkpt lat="45.91067" lon="-0.95641">
        <ele>16.96</ele>
        <time>2014-04-02T13:10:09Z</time>
      </trkpt>
      <trkpt lat="45.91076" lon="-0.95635">
        <ele>16.48</ele>
        <time>2014-04-02T13:10:18Z</time>
      </trkpt>
      <trkpt lat="45.91087" lon="-0.95628">
        <ele>15.52</ele>
        <time>2014-04-02T13:10:28Z</time>
      </trkpt>
      <trkpt lat="45.91098" lon="-0.95618">
        <ele>14.56</ele>
        <time>2014-04-02T13:10:39Z</time>
      </trkpt>
      <trkpt lat="45.91109" lon="-0.9561">
        <ele>14.08</ele>
        <time>2014-04-02T13:10:49Z</time>
      </trkpt>
      <trkpt lat="45.91121" lon="-0.95603">
        <ele>14.56</ele>
        <time>2014-04-02T13:10:59Z</time>
      </trkpt>
      <trkpt lat="45.91132" lon="-0.95595">
        <ele>14.56</ele>
        <time>2014-04-02T13:11:11Z</time>
      </trkpt>
      <trkpt lat="45.91143" lon="-0.95587">
        <ele>14.56</ele>
        <time>2014-04-02T13:11:21Z</time>
      </trkpt>
      <trkpt lat="45.91156" lon="-0.95577">
        <ele>15.04</ele>
        <time>2014-04-02T13:11:30Z</time>
      </trkpt>
      <trkpt lat="45.91161" lon="-0.95567">
        <ele>15.52</ele>
        <time>2014-04-02T13:11:38Z</time>
      </trkpt>
      <trkpt lat="45.91167" lon="-0.95556">
        <ele>16.48</ele>
        <time>2014-04-02T13:11:46Z</time>
      </trkpt>
      <trkpt lat="45.91173" lon="-0.95544">
        <ele>16.96</ele>
        <time>2014-04-02T13:11:55Z</time>
      </trkpt>
      <trkpt lat="45.91179" lon="-0.95536">
        <ele>17.44</ele>
        <time>2014-04-02T13:12:02Z</time>
      </trkpt>
      <trkpt lat="45.91185" lon="-0.95525">
        <ele>18.4</ele>
        <time>2014-04-02T13:12:10Z</time>
      </trkpt>
      <trkpt lat="45.9119" lon="-0.95514">
        <ele>18.4</ele>
        <time>2014-04-02T13:12:18Z</time>
      </trkpt>
      <trkpt lat="45.91197" lon="-0.95502">
        <ele>19.36</ele>
        <time>2014-04-02T13:12:27Z</time>
      </trkpt>
      <trkpt lat="45.91202" lon="-0.95489">
        <ele>18.88</ele>
        <time>2014-04-02T13:12:35Z</time>
      </trkpt>
      <trkpt lat="45.91207" lon="-0.95477">
        <ele>18.88</ele>
        <time>2014-04-02T13:12:43Z</time>
      </trkpt>
      <trkpt lat="45.91214" lon="-0.95467">
        <ele>18.4</ele>
        <time>2014-04-02T13:12:51Z</time>
      </trkpt>
      <trkpt lat="45.91219" lon="-0.95454">
        <ele>18.4</ele>
        <time>2014-04-02T13:12:59Z</time>
      </trkpt>
      <trkpt lat="45.91224" lon="-0.95445">
        <ele>18.4</ele>
        <time>2014-04-02T13:13:06Z</time>
      </trkpt>
      <trkpt lat="45.91232" lon="-0.95436">
        <ele>18.88</ele>
        <time>2014-04-02T13:13:15Z</time>
      </trkpt>
      <trkpt lat="45.9124" lon="-0.95428">
        <ele>19.36</ele>
        <time>2014-04-02T13:13:24Z</time>
      </trkpt>
      <trkpt lat="45.91247" lon="-0.95415">
        <ele>19.36</ele>
        <time>2014-04-02T13:13:34Z</time>
      </trkpt>
      <trkpt lat="45.91257" lon="-0.95404">
        <ele>18.88</ele>
        <time>2014-04-02T13:13:44Z</time>
      </trkpt>
      <trkpt lat="45.91266" lon="-0.95392">
        <ele>19.36</ele>
        <time>2014-04-02T13:13:54Z</time>
      </trkpt>
      <trkpt lat="45.91274" lon="-0.95382">
        <ele>19.84</ele>
        <time>2014-04-02T13:14:02Z</time>
      </trkpt>
      <trkpt lat="45.91282" lon="-0.95367">
        <ele>19.84</ele>
        <time>2014-04-02T13:14:12Z</time>
      </trkpt>
      <trkpt lat="45.9129" lon="-0.95355">
        <ele>19.84</ele>
        <time>2014-04-02T13:14:22Z</time>
      </trkpt>
      <trkpt lat="45.91297" lon="-0.95343">
        <ele>19.36</ele>
        <time>2014-04-02T13:14:31Z</time>
      </trkpt>
      <trkpt lat="45.91303" lon="-0.9533">
        <ele>19.84</ele>
        <time>2014-04-02T13:14:40Z</time>
      </trkpt>
      <trkpt lat="45.91312" lon="-0.95319">
        <ele>19.84</ele>
        <time>2014-04-02T13:14:49Z</time>
      </trkpt>
      <trkpt lat="45.91318" lon="-0.95305">
        <ele>19.84</ele>
        <time>2014-04-02T13:14:58Z</time>
      </trkpt>
      <trkpt lat="45.91324" lon="-0.95291">
        <ele>19.36</ele>
        <time>2014-04-02T13:15:07Z</time>
      </trkpt>
      <trkpt lat="45.91331" lon="-0.95278">
        <ele>19.36</ele>
        <time>2014-04-02T13:15:16Z</time>
      </trkpt>
      <trkpt lat="45.91334" lon="-0.95263">
        <ele>19.84</ele>
        <time>2014-04-02T13:15:24Z</time>
      </trkpt>
      <trkpt lat="45.91337" lon="-0.9525">
        <ele>19.36</ele>
        <time>2014-04-02T13:15:32Z</time>
      </trkpt>
      <trkpt lat="45.91344" lon="-0.95238">
        <ele>18.88</ele>
        <time>2014-04-02T13:15:40Z</time>
      </trkpt>
      <trkpt lat="45.91349" lon="-0.95226">
        <ele>17.92</ele>
        <time>2014-04-02T13:15:48Z</time>
      </trkpt>
      <trkpt lat="45.91357" lon="-0.95216">
        <ele>18.4</ele>
        <time>2014-04-02T13:15:57Z</time>
      </trkpt>
      <trkpt lat="45.91357" lon="-0.95213">
        <ele>16.96</ele>
        <time>2014-04-02T13:16:24Z</time>
      </trkpt>
      <trkpt lat="45.91363" lon="-0.95205">
        <ele>16.48</ele>
        <time>2014-04-02T13:16:42Z</time>
      </trkpt>
      <trkpt lat="45.91373" lon="-0.95196">
        <ele>15.04</ele>
        <time>2014-04-02T13:16:52Z</time>
      </trkpt>
      <trkpt lat="45.91382" lon="-0.95194">
        <ele>14.08</ele>
        <time>2014-04-02T13:16:58Z</time>
      </trkpt>
      <trkpt lat="45.9139" lon="-0.95188">
        <ele>13.6</ele>
        <time>2014-04-02T13:17:04Z</time>
      </trkpt>
      <trkpt lat="45.91394" lon="-0.9518">
        <ele>13.6</ele>
        <time>2014-04-02T13:17:11Z</time>
      </trkpt>
      <trkpt lat="45.91396" lon="-0.95166">
        <ele>13.6</ele>
        <time>2014-04-02T13:17:20Z</time>
      </trkpt>
      <trkpt lat="45.91401" lon="-0.95152">
        <ele>13.6</ele>
        <time>2014-04-02T13:17:28Z</time>
      </trkpt>
      <trkpt lat="45.91405" lon="-0.95139">
        <ele>13.6</ele>
        <time>2014-04-02T13:17:37Z</time>
      </trkpt>
      <trkpt lat="45.91409" lon="-0.95124">
        <ele>13.12</ele>
        <time>2014-04-02T13:17:45Z</time>
      </trkpt>
      <trkpt lat="45.91412" lon="-0.9511">
        <ele>13.12</ele>
        <time>2014-04-02T13:17:54Z</time>
      </trkpt>
      <trkpt lat="45.91416" lon="-0.95096">
        <ele>13.6</ele>
        <time>2014-04-02T13:18:03Z</time>
      </trkpt>
      <trkpt lat="45.91418" lon="-0.95083">
        <ele>13.12</ele>
        <time>2014-04-02T13:18:10Z</time>
      </trkpt>
      <trkpt lat="45.91422" lon="-0.9507">
        <ele>13.6</ele>
        <time>2014-04-02T13:18:18Z</time>
      </trkpt>
      <trkpt lat="45.91425" lon="-0.95056">
        <ele>13.6</ele>
        <time>2014-04-02T13:18:28Z</time>
      </trkpt>
      <trkpt lat="45.91427" lon="-0.95041">
        <ele>13.6</ele>
        <time>2014-04-02T13:18:36Z</time>
      </trkpt>
      <trkpt lat="45.9143" lon="-0.9503">
        <ele>13.6</ele>
        <time>2014-04-02T13:18:43Z</time>
      </trkpt>
      <trkpt lat="45.91432" lon="-0.95016">
        <ele>13.12</ele>
        <time>2014-04-02T13:18:51Z</time>
      </trkpt>
      <trkpt lat="45.91435" lon="-0.95001">
        <ele>13.12</ele>
        <time>2014-04-02T13:18:59Z</time>
      </trkpt>
      <trkpt lat="45.91436" lon="-0.94987">
        <ele>13.12</ele>
        <time>2014-04-02T13:19:07Z</time>
      </trkpt>
      <trkpt lat="45.91437" lon="-0.94973">
        <ele>13.12</ele>
        <time>2014-04-02T13:19:15Z</time>
      </trkpt>
      <trkpt lat="45.91436" lon="-0.94961">
        <ele>13.12</ele>
        <time>2014-04-02T13:19:22Z</time>
      </trkpt>
      <trkpt lat="45.91436" lon="-0.94946">
        <ele>13.12</ele>
        <time>2014-04-02T13:19:30Z</time>
      </trkpt>
      <trkpt lat="45.91435" lon="-0.94931">
        <ele>13.12</ele>
        <time>2014-04-02T13:19:39Z</time>
      </trkpt>
      <trkpt lat="45.91434" lon="-0.94918">
        <ele>13.12</ele>
        <time>2014-04-02T13:19:47Z</time>
      </trkpt>
      <trkpt lat="45.91432" lon="-0.94903">
        <ele>13.12</ele>
        <time>2014-04-02T13:19:55Z</time>
      </trkpt>
      <trkpt lat="45.9143" lon="-0.94888">
        <ele>13.12</ele>
        <time>2014-04-02T13:20:03Z</time>
      </trkpt>
      <trkpt lat="45.91428" lon="-0.94874">
        <ele>12.63</ele>
        <time>2014-04-02T13:20:11Z</time>
      </trkpt>
      <trkpt lat="45.91427" lon="-0.94861">
        <ele>12.15</ele>
        <time>2014-04-02T13:20:18Z</time>
      </trkpt>
      <trkpt lat="45.91425" lon="-0.94848">
        <ele>12.15</ele>
        <time>2014-04-02T13:20:27Z</time>
      </trkpt>
      <trkpt lat="45.91423" lon="-0.94834">
        <ele>12.63</ele>
        <time>2014-04-02T13:20:35Z</time>
      </trkpt>
      <trkpt lat="45.91421" lon="-0.94821">
        <ele>12.63</ele>
        <time>2014-04-02T13:20:42Z</time>
      </trkpt>
      <trkpt lat="45.91419" lon="-0.94808">
        <ele>12.15</ele>
        <time>2014-04-02T13:20:49Z</time>
      </trkpt>
      <trkpt lat="45.91418" lon="-0.94796">
        <ele>12.63</ele>
        <time>2014-04-02T13:20:56Z</time>
      </trkpt>
      <trkpt lat="45.91416" lon="-0.94782">
        <ele>12.15</ele>
        <time>2014-04-02T13:21:04Z</time>
      </trkpt>
      <trkpt lat="45.91415" lon="-0.9477">
        <ele>11.67</ele>
        <time>2014-04-02T13:21:11Z</time>
      </trkpt>
      <trkpt lat="45.91413" lon="-0.94757">
        <ele>12.63</ele>
        <time>2014-04-02T13:21:19Z</time>
      </trkpt>
      <trkpt lat="45.91411" lon="-0.94745">
        <ele>12.15</ele>
        <time>2014-04-02T13:21:25Z</time>
      </trkpt>
      <trkpt lat="45.9141" lon="-0.94731">
        <ele>12.63</ele>
        <time>2014-04-02T13:21:35Z</time>
      </trkpt>
      <trkpt lat="45.91407" lon="-0.94718">
        <ele>12.63</ele>
        <time>2014-04-02T13:21:42Z</time>
      </trkpt>
      <trkpt lat="45.91406" lon="-0.94705">
        <ele>12.63</ele>
        <time>2014-04-02T13:21:50Z</time>
      </trkpt>
      <trkpt lat="45.91404" lon="-0.94689">
        <ele>12.63</ele>
        <time>2014-04-02T13:22:00Z</time>
      </trkpt>
      <trkpt lat="45.91402" lon="-0.94676">
        <ele>13.12</ele>
        <time>2014-04-02T13:22:06Z</time>
      </trkpt>
      <trkpt lat="45.91402" lon="-0.94664">
        <ele>12.15</ele>
        <time>2014-04-02T13:22:13Z</time>
      </trkpt>
      <trkpt lat="45.91403" lon="-0.9465">
        <ele>12.63</ele>
        <time>2014-04-02T13:22:22Z</time>
      </trkpt>
      <trkpt lat="45.91404" lon="-0.94636">
        <ele>12.63</ele>
        <time>2014-04-02T13:22:30Z</time>
      </trkpt>
      <trkpt lat="45.91405" lon="-0.94622">
        <ele>12.63</ele>
        <time>2014-04-02T13:22:38Z</time>
      </trkpt>
      <trkpt lat="45.91404" lon="-0.94608">
        <ele>13.12</ele>
        <time>2014-04-02T13:22:46Z</time>
      </trkpt>
      <trkpt lat="45.91404" lon="-0.94595">
        <ele>12.15</ele>
        <time>2014-04-02T13:22:53Z</time>
      </trkpt>
      <trkpt lat="45.91403" lon="-0.9458">
        <ele>12.15</ele>
        <time>2014-04-02T13:23:00Z</time>
      </trkpt>
      <trkpt lat="45.914" lon="-0.94568">
        <ele>12.63</ele>
        <time>2014-04-02T13:23:08Z</time>
      </trkpt>
      <trkpt lat="45.91399" lon="-0.94554">
        <ele>12.63</ele>
        <time>2014-04-02T13:23:16Z</time>
      </trkpt>
      <trkpt lat="45.91399" lon="-0.9454">
        <ele>12.63</ele>
        <time>2014-04-02T13:23:25Z</time>
      </trkpt>
      <trkpt lat="45.91397" lon="-0.94525">
        <ele>12.63</ele>
        <time>2014-04-02T13:23:33Z</time>
      </trkpt>
      <trkpt lat="45.91395" lon="-0.94511">
        <ele>13.12</ele>
        <time>2014-04-02T13:23:42Z</time>
      </trkpt>
      <trkpt lat="45.91393" lon="-0.94497">
        <ele>12.15</ele>
        <time>2014-04-02T13:23:49Z</time>
      </trkpt>
      <trkpt lat="45.91392" lon="-0.94484">
        <ele>12.15</ele>
        <time>2014-04-02T13:23:56Z</time>
      </trkpt>
      <trkpt lat="45.91391" lon="-0.9447">
        <ele>12.63</ele>
        <time>2014-04-02T13:24:05Z</time>
      </trkpt>
      <trkpt lat="45.91389" lon="-0.94457">
        <ele>12.63</ele>
        <time>2014-04-02T13:24:12Z</time>
      </trkpt>
      <trkpt lat="45.91386" lon="-0.94443">
        <ele>12.63</ele>
        <time>2014-04-02T13:24:20Z</time>
      </trkpt>
      <trkpt lat="45.91383" lon="-0.9443">
        <ele>12.63</ele>
        <time>2014-04-02T13:24:28Z</time>
      </trkpt>
      <trkpt lat="45.91381" lon="-0.94416">
        <ele>13.12</ele>
        <time>2014-04-02T13:24:36Z</time>
      </trkpt>
      <trkpt lat="45.91379" lon="-0.94402">
        <ele>12.15</ele>
        <time>2014-04-02T13:24:45Z</time>
      </trkpt>
      <trkpt lat="45.91376" lon="-0.94388">
        <ele>12.63</ele>
        <time>2014-04-02T13:24:54Z</time>
      </trkpt>
      <trkpt lat="45.91374" lon="-0.94374">
        <ele>12.15</ele>
        <time>2014-04-02T13:25:02Z</time>
      </trkpt>
      <trkpt lat="45.91371" lon="-0.94359">
        <ele>12.63</ele>
        <time>2014-04-02T13:25:11Z</time>
      </trkpt>
      <trkpt lat="45.91369" lon="-0.94345">
        <ele>13.12</ele>
        <time>2014-04-02T13:25:19Z</time>
      </trkpt>
      <trkpt lat="45.91366" lon="-0.94332">
        <ele>13.6</ele>
        <time>2014-04-02T13:25:28Z</time>
      </trkpt>
      <trkpt lat="45.91365" lon="-0.94317">
        <ele>13.6</ele>
        <time>2014-04-02T13:25:36Z</time>
      </trkpt>
      <trkpt lat="45.91361" lon="-0.94306">
        <ele>14.08</ele>
        <time>2014-04-02T13:25:46Z</time>
      </trkpt>
      <trkpt lat="45.91364" lon="-0.94304">
        <ele>13.6</ele>
        <time>2014-04-02T13:29:23Z</time>
      </trkpt>
      <trkpt lat="45.91365" lon="-0.94297">
        <ele>14.08</ele>
        <time>2014-04-02T13:29:31Z</time>
      </trkpt>
      <trkpt lat="45.91369" lon="-0.94287">
        <ele>15.04</ele>
        <time>2014-04-02T13:29:39Z</time>
      </trkpt>
      <trkpt lat="45.91373" lon="-0.94275">
        <ele>14.08</ele>
        <time>2014-04-02T13:29:47Z</time>
      </trkpt>
      <trkpt lat="45.91377" lon="-0.94261">
        <ele>14.08</ele>
        <time>2014-04-02T13:29:55Z</time>
      </trkpt>
      <trkpt lat="45.9138" lon="-0.94251">
        <ele>13.12</ele>
        <time>2014-04-02T13:30:06Z</time>
      </trkpt>
      <trkpt lat="45.91385" lon="-0.94237">
        <ele>12.63</ele>
        <time>2014-04-02T13:30:16Z</time>
      </trkpt>
      <trkpt lat="45.91389" lon="-0.94224">
        <ele>12.63</ele>
        <time>2014-04-02T13:30:24Z</time>
      </trkpt>
      <trkpt lat="45.91393" lon="-0.94211">
        <ele>13.12</ele>
        <time>2014-04-02T13:30:31Z</time>
      </trkpt>
      <trkpt lat="45.91397" lon="-0.942">
        <ele>12.63</ele>
        <time>2014-04-02T13:30:37Z</time>
      </trkpt>
      <trkpt lat="45.914" lon="-0.94189">
        <ele>12.15</ele>
        <time>2014-04-02T13:30:43Z</time>
      </trkpt>
      <trkpt lat="45.91404" lon="-0.94175">
        <ele>12.15</ele>
        <time>2014-04-02T13:30:51Z</time>
      </trkpt>
      <trkpt lat="45.91409" lon="-0.94164">
        <ele>12.15</ele>
        <time>2014-04-02T13:30:59Z</time>
      </trkpt>
      <trkpt lat="45.91413" lon="-0.94151">
        <ele>11.19</ele>
        <time>2014-04-02T13:31:05Z</time>
      </trkpt>
      <trkpt lat="45.91418" lon="-0.9414">
        <ele>11.67</ele>
        <time>2014-04-02T13:31:14Z</time>
      </trkpt>
      <trkpt lat="45.91424" lon="-0.94128">
        <ele>11.67</ele>
        <time>2014-04-02T13:31:22Z</time>
      </trkpt>
      <trkpt lat="45.9143" lon="-0.94116">
        <ele>11.19</ele>
        <time>2014-04-02T13:31:28Z</time>
      </trkpt>
      <trkpt lat="45.91437" lon="-0.94105">
        <ele>11.19</ele>
        <time>2014-04-02T13:31:37Z</time>
      </trkpt>
      <trkpt lat="45.91443" lon="-0.94094">
        <ele>11.19</ele>
        <time>2014-04-02T13:31:45Z</time>
      </trkpt>
      <trkpt lat="45.91451" lon="-0.94086">
        <ele>12.15</ele>
        <time>2014-04-02T13:31:54Z</time>
      </trkpt>
      <trkpt lat="45.91457" lon="-0.94077">
        <ele>11.67</ele>
        <time>2014-04-02T13:32:01Z</time>
      </trkpt>
      <trkpt lat="45.91463" lon="-0.94067">
        <ele>11.67</ele>
        <time>2014-04-02T13:32:09Z</time>
      </trkpt>
      <trkpt lat="45.91468" lon="-0.94056">
        <ele>11.67</ele>
        <time>2014-04-02T13:32:16Z</time>
      </trkpt>
      <trkpt lat="45.9147" lon="-0.94049">
        <ele>12.15</ele>
        <time>2014-04-02T14:19:28Z</time>
      </trkpt>
      <trkpt lat="45.91461" lon="-0.94042">
        <ele>12.15</ele>
        <time>2014-04-02T14:19:36Z</time>
      </trkpt>
      <trkpt lat="45.91454" lon="-0.94034">
        <ele>11.67</ele>
        <time>2014-04-02T14:19:44Z</time>
      </trkpt>
      <trkpt lat="45.91446" lon="-0.94025">
        <ele>12.15</ele>
        <time>2014-04-02T14:19:52Z</time>
      </trkpt>
      <trkpt lat="45.91438" lon="-0.94016">
        <ele>12.15</ele>
        <time>2014-04-02T14:20:00Z</time>
      </trkpt>
      <trkpt lat="45.9143" lon="-0.94005">
        <ele>12.15</ele>
        <time>2014-04-02T14:20:08Z</time>
      </trkpt>
      <trkpt lat="45.91423" lon="-0.93996">
        <ele>12.63</ele>
        <time>2014-04-02T14:20:16Z</time>
      </trkpt>
      <trkpt lat="45.91417" lon="-0.93985">
        <ele>12.15</ele>
        <time>2014-04-02T14:20:27Z</time>
      </trkpt>
      <trkpt lat="45.91408" lon="-0.93973">
        <ele>12.15</ele>
        <time>2014-04-02T14:20:35Z</time>
      </trkpt>
      <trkpt lat="45.91402" lon="-0.93962">
        <ele>13.12</ele>
        <time>2014-04-02T14:20:45Z</time>
      </trkpt>
      <trkpt lat="45.91395" lon="-0.93949">
        <ele>13.12</ele>
        <time>2014-04-02T14:20:55Z</time>
      </trkpt>
      <trkpt lat="45.91388" lon="-0.93937">
        <ele>13.12</ele>
        <time>2014-04-02T14:21:04Z</time>
      </trkpt>
      <trkpt lat="45.9138" lon="-0.93928">
        <ele>13.6</ele>
        <time>2014-04-02T14:21:13Z</time>
      </trkpt>
      <trkpt lat="45.91373" lon="-0.93917">
        <ele>13.6</ele>
        <time>2014-04-02T14:21:21Z</time>
      </trkpt>
      <trkpt lat="45.91364" lon="-0.93905">
        <ele>13.6</ele>
        <time>2014-04-02T14:21:32Z</time>
      </trkpt>
      <trkpt lat="45.91357" lon="-0.93891">
        <ele>14.08</ele>
        <time>2014-04-02T14:21:41Z</time>
      </trkpt>
      <trkpt lat="45.9135" lon="-0.9388">
        <ele>14.08</ele>
        <time>2014-04-02T14:21:49Z</time>
      </trkpt>
      <trkpt lat="45.91344" lon="-0.9387">
        <ele>14.08</ele>
        <time>2014-04-02T14:21:57Z</time>
      </trkpt>
      <trkpt lat="45.91337" lon="-0.93859">
        <ele>13.6</ele>
        <time>2014-04-02T14:22:06Z</time>
      </trkpt>
      <trkpt lat="45.91329" lon="-0.9385">
        <ele>14.56</ele>
        <time>2014-04-02T14:22:16Z</time>
      </trkpt>
      <trkpt lat="45.9132" lon="-0.93839">
        <ele>14.08</ele>
        <time>2014-04-02T14:22:25Z</time>
      </trkpt>
      <trkpt lat="45.91312" lon="-0.93827">
        <ele>13.6</ele>
        <time>2014-04-02T14:22:34Z</time>
      </trkpt>
      <trkpt lat="45.91304" lon="-0.93819">
        <ele>14.08</ele>
        <time>2014-04-02T14:22:41Z</time>
      </trkpt>
      <trkpt lat="45.91296" lon="-0.93811">
        <ele>14.08</ele>
        <time>2014-04-02T14:22:50Z</time>
      </trkpt>
      <trkpt lat="45.91286" lon="-0.93803">
        <ele>14.08</ele>
        <time>2014-04-02T14:23:00Z</time>
      </trkpt>
      <trkpt lat="45.91275" lon="-0.93797">
        <ele>14.56</ele>
        <time>2014-04-02T14:23:10Z</time>
      </trkpt>
      <trkpt lat="45.91264" lon="-0.93794">
        <ele>14.56</ele>
        <time>2014-04-02T14:23:18Z</time>
      </trkpt>
      <trkpt lat="45.91255" lon="-0.93793">
        <ele>14.56</ele>
        <time>2014-04-02T14:23:26Z</time>
      </trkpt>
      <trkpt lat="45.91247" lon="-0.93791">
        <ele>14.56</ele>
        <time>2014-04-02T14:23:34Z</time>
      </trkpt>
      <trkpt lat="45.91236" lon="-0.93788">
        <ele>15.52</ele>
        <time>2014-04-02T14:23:45Z</time>
      </trkpt>
      <trkpt lat="45.91226" lon="-0.93784">
        <ele>15.52</ele>
        <time>2014-04-02T14:23:54Z</time>
      </trkpt>
      <trkpt lat="45.91216" lon="-0.93779">
        <ele>16</ele>
        <time>2014-04-02T14:24:03Z</time>
      </trkpt>
      <trkpt lat="45.91203" lon="-0.93782">
        <ele>16.48</ele>
        <time>2014-04-02T14:24:12Z</time>
      </trkpt>
      <trkpt lat="45.91192" lon="-0.93791">
        <ele>16.96</ele>
        <time>2014-04-02T14:24:20Z</time>
      </trkpt>
      <trkpt lat="45.91184" lon="-0.938">
        <ele>18.4</ele>
        <time>2014-04-02T14:24:30Z</time>
      </trkpt>
      <trkpt lat="45.91175" lon="-0.93805">
        <ele>18.4</ele>
        <time>2014-04-02T14:24:39Z</time>
      </trkpt>
      <trkpt lat="45.91163" lon="-0.93809">
        <ele>18.88</ele>
        <time>2014-04-02T14:24:48Z</time>
      </trkpt>
      <trkpt lat="45.91154" lon="-0.93812">
        <ele>19.36</ele>
        <time>2014-04-02T14:24:56Z</time>
      </trkpt>
      <trkpt lat="45.91145" lon="-0.93815">
        <ele>19.84</ele>
        <time>2014-04-02T14:25:04Z</time>
      </trkpt>
      <trkpt lat="45.91135" lon="-0.93816">
        <ele>19.84</ele>
        <time>2014-04-02T14:25:12Z</time>
      </trkpt>
      <trkpt lat="45.91126" lon="-0.93817">
        <ele>19.84</ele>
        <time>2014-04-02T14:25:22Z</time>
      </trkpt>
      <trkpt lat="45.91115" lon="-0.93821">
        <ele>20.32</ele>
        <time>2014-04-02T14:25:30Z</time>
      </trkpt>
      <trkpt lat="45.91105" lon="-0.93823">
        <ele>20.81</ele>
        <time>2014-04-02T14:25:40Z</time>
      </trkpt>
      <trkpt lat="45.91094" lon="-0.93824">
        <ele>20.81</ele>
        <time>2014-04-02T14:25:48Z</time>
      </trkpt>
      <trkpt lat="45.91085" lon="-0.93824">
        <ele>21.29</ele>
        <time>2014-04-02T14:25:55Z</time>
      </trkpt>
      <trkpt lat="45.91075" lon="-0.93825">
        <ele>21.29</ele>
        <time>2014-04-02T14:26:03Z</time>
      </trkpt>
      <trkpt lat="45.91065" lon="-0.93825">
        <ele>21.29</ele>
        <time>2014-04-02T14:26:10Z</time>
      </trkpt>
      <trkpt lat="45.91056" lon="-0.93826">
        <ele>21.29</ele>
        <time>2014-04-02T14:26:18Z</time>
      </trkpt>
      <trkpt lat="45.91048" lon="-0.93826">
        <ele>21.29</ele>
        <time>2014-04-02T14:26:25Z</time>
      </trkpt>
      <trkpt lat="45.91039" lon="-0.93829">
        <ele>21.29</ele>
        <time>2014-04-02T14:26:32Z</time>
      </trkpt>
      <trkpt lat="45.91029" lon="-0.93831">
        <ele>20.81</ele>
        <time>2014-04-02T14:26:39Z</time>
      </trkpt>
      <trkpt lat="45.91021" lon="-0.93834">
        <ele>20.81</ele>
        <time>2014-04-02T14:26:46Z</time>
      </trkpt>
      <trkpt lat="45.91012" lon="-0.93837">
        <ele>20.81</ele>
        <time>2014-04-02T14:26:53Z</time>
      </trkpt>
      <trkpt lat="45.91004" lon="-0.93842">
        <ele>21.29</ele>
        <time>2014-04-02T14:27:01Z</time>
      </trkpt>
      <trkpt lat="45.90996" lon="-0.93847">
        <ele>20.81</ele>
        <time>2014-04-02T14:27:08Z</time>
      </trkpt>
      <trkpt lat="45.90989" lon="-0.93852">
        <ele>20.81</ele>
        <time>2014-04-02T14:27:16Z</time>
      </trkpt>
      <trkpt lat="45.90981" lon="-0.93846">
        <ele>20.81</ele>
        <time>2014-04-02T14:27:24Z</time>
      </trkpt>
      <trkpt lat="45.90976" lon="-0.93834">
        <ele>20.32</ele>
        <time>2014-04-02T14:27:33Z</time>
      </trkpt>
      <trkpt lat="45.90971" lon="-0.93821">
        <ele>20.32</ele>
        <time>2014-04-02T14:27:41Z</time>
      </trkpt>
      <trkpt lat="45.90968" lon="-0.93806">
        <ele>19.84</ele>
        <time>2014-04-02T14:27:49Z</time>
      </trkpt>
      <trkpt lat="45.90965" lon="-0.93793">
        <ele>19.84</ele>
        <time>2014-04-02T14:27:56Z</time>
      </trkpt>
      <trkpt lat="45.9096" lon="-0.93782">
        <ele>19.36</ele>
        <time>2014-04-02T14:28:02Z</time>
      </trkpt>
      <trkpt lat="45.90957" lon="-0.93771">
        <ele>19.36</ele>
        <time>2014-04-02T14:28:09Z</time>
      </trkpt>
      <trkpt lat="45.90953" lon="-0.9376">
        <ele>19.84</ele>
        <time>2014-04-02T14:28:16Z</time>
      </trkpt>
      <trkpt lat="45.90951" lon="-0.93747">
        <ele>18.88</ele>
        <time>2014-04-02T14:28:24Z</time>
      </trkpt>
      <trkpt lat="45.90947" lon="-0.93734">
        <ele>20.32</ele>
        <time>2014-04-02T14:28:32Z</time>
      </trkpt>
      <trkpt lat="45.90943" lon="-0.93722">
        <ele>18.4</ele>
        <time>2014-04-02T14:28:40Z</time>
      </trkpt>
      <trkpt lat="45.90938" lon="-0.9371">
        <ele>18.88</ele>
        <time>2014-04-02T14:28:46Z</time>
      </trkpt>
      <trkpt lat="45.90934" lon="-0.93699">
        <ele>19.36</ele>
        <time>2014-04-02T14:28:54Z</time>
      </trkpt>
      <trkpt lat="45.9093" lon="-0.93687">
        <ele>18.88</ele>
        <time>2014-04-02T14:29:02Z</time>
      </trkpt>
      <trkpt lat="45.90925" lon="-0.93676">
        <ele>18.88</ele>
        <time>2014-04-02T14:29:10Z</time>
      </trkpt>
      <trkpt lat="45.90914" lon="-0.93679">
        <ele>18.88</ele>
        <time>2014-04-02T14:30:41Z</time>
      </trkpt>
      <trkpt lat="45.90905" lon="-0.93687">
        <ele>19.36</ele>
        <time>2014-04-02T14:30:51Z</time>
      </trkpt>
      <trkpt lat="45.90895" lon="-0.93696">
        <ele>19.84</ele>
        <time>2014-04-02T14:31:02Z</time>
      </trkpt>
      <trkpt lat="45.90885" lon="-0.93703">
        <ele>19.84</ele>
        <time>2014-04-02T14:31:13Z</time>
      </trkpt>
      <trkpt lat="45.90876" lon="-0.93713">
        <ele>19.84</ele>
        <time>2014-04-02T14:31:22Z</time>
      </trkpt>
      <trkpt lat="45.90865" lon="-0.93722">
        <ele>19.84</ele>
        <time>2014-04-02T14:31:31Z</time>
      </trkpt>
      <trkpt lat="45.90856" lon="-0.93728">
        <ele>19.36</ele>
        <time>2014-04-02T14:31:40Z</time>
      </trkpt>
      <trkpt lat="45.90846" lon="-0.93735">
        <ele>19.36</ele>
        <time>2014-04-02T14:31:49Z</time>
      </trkpt>
      <trkpt lat="45.90836" lon="-0.93742">
        <ele>19.36</ele>
        <time>2014-04-02T14:31:58Z</time>
      </trkpt>
      <trkpt lat="45.90827" lon="-0.93749">
        <ele>19.36</ele>
        <time>2014-04-02T14:32:09Z</time>
      </trkpt>
      <trkpt lat="45.90817" lon="-0.93756">
        <ele>18.88</ele>
        <time>2014-04-02T14:32:19Z</time>
      </trkpt>
      <trkpt lat="45.90807" lon="-0.93764">
        <ele>18.88</ele>
        <time>2014-04-02T14:32:27Z</time>
      </trkpt>
      <trkpt lat="45.90797" lon="-0.93769">
        <ele>19.84</ele>
        <time>2014-04-02T14:32:38Z</time>
      </trkpt>
      <trkpt lat="45.90792" lon="-0.93757">
        <ele>19.36</ele>
        <time>2014-04-02T14:32:50Z</time>
      </trkpt>
      <trkpt lat="45.90785" lon="-0.93749">
        <ele>18.4</ele>
        <time>2014-04-02T14:33:00Z</time>
      </trkpt>
      <trkpt lat="45.90782" lon="-0.93737">
        <ele>18.4</ele>
        <time>2014-04-02T14:33:09Z</time>
      </trkpt>
      <trkpt lat="45.90778" lon="-0.93725">
        <ele>18.88</ele>
        <time>2014-04-02T14:33:17Z</time>
      </trkpt>
      <trkpt lat="45.90772" lon="-0.93715">
        <ele>19.36</ele>
        <time>2014-04-02T14:33:24Z</time>
      </trkpt>
      <trkpt lat="45.90765" lon="-0.93706">
        <ele>18.4</ele>
        <time>2014-04-02T14:33:33Z</time>
      </trkpt>
      <trkpt lat="45.9076" lon="-0.93695">
        <ele>18.88</ele>
        <time>2014-04-02T14:33:46Z</time>
      </trkpt>
      <trkpt lat="45.90755" lon="-0.93684">
        <ele>18.4</ele>
        <time>2014-04-02T14:33:57Z</time>
      </trkpt>
      <trkpt lat="45.90747" lon="-0.93678">
        <ele>19.36</ele>
        <time>2014-04-02T14:34:06Z</time>
      </trkpt>
      <trkpt lat="45.90739" lon="-0.93666">
        <ele>18.4</ele>
        <time>2014-04-02T14:34:15Z</time>
      </trkpt>
      <trkpt lat="45.90735" lon="-0.93652">
        <ele>18.4</ele>
        <time>2014-04-02T14:34:25Z</time>
      </trkpt>
      <trkpt lat="45.90729" lon="-0.93639">
        <ele>17.92</ele>
        <time>2014-04-02T14:34:34Z</time>
      </trkpt>
      <trkpt lat="45.90724" lon="-0.93625">
        <ele>18.4</ele>
        <time>2014-04-02T14:34:43Z</time>
      </trkpt>
      <trkpt lat="45.90719" lon="-0.93612">
        <ele>16.96</ele>
        <time>2014-04-02T14:34:51Z</time>
      </trkpt>
      <trkpt lat="45.90714" lon="-0.93598">
        <ele>16.96</ele>
        <time>2014-04-02T14:35:00Z</time>
      </trkpt>
      <trkpt lat="45.9071" lon="-0.93584">
        <ele>16.96</ele>
        <time>2014-04-02T14:35:08Z</time>
      </trkpt>
      <trkpt lat="45.90707" lon="-0.9357">
        <ele>16</ele>
        <time>2014-04-02T14:35:17Z</time>
      </trkpt>
      <trkpt lat="45.90703" lon="-0.93556">
        <ele>15.52</ele>
        <time>2014-04-02T14:35:26Z</time>
      </trkpt>
      <trkpt lat="45.90698" lon="-0.93543">
        <ele>16</ele>
        <time>2014-04-02T14:35:34Z</time>
      </trkpt>
      <trkpt lat="45.90694" lon="-0.93529">
        <ele>15.04</ele>
        <time>2014-04-02T14:35:42Z</time>
      </trkpt>
      <trkpt lat="45.9069" lon="-0.93517">
        <ele>15.04</ele>
        <time>2014-04-02T14:35:50Z</time>
      </trkpt>
      <trkpt lat="45.90687" lon="-0.93503">
        <ele>15.04</ele>
        <time>2014-04-02T14:35:58Z</time>
      </trkpt>
      <trkpt lat="45.90683" lon="-0.9349">
        <ele>15.52</ele>
        <time>2014-04-02T14:36:06Z</time>
      </trkpt>
      <trkpt lat="45.9068" lon="-0.93476">
        <ele>15.52</ele>
        <time>2014-04-02T14:36:13Z</time>
      </trkpt>
      <trkpt lat="45.90679" lon="-0.93464">
        <ele>15.52</ele>
        <time>2014-04-02T14:36:20Z</time>
      </trkpt>
      <trkpt lat="45.90677" lon="-0.9345">
        <ele>16</ele>
        <time>2014-04-02T14:36:27Z</time>
      </trkpt>
      <trkpt lat="45.90676" lon="-0.93437">
        <ele>16.48</ele>
        <time>2014-04-02T14:36:35Z</time>
      </trkpt>
      <trkpt lat="45.90673" lon="-0.93424">
        <ele>16.48</ele>
        <time>2014-04-02T14:36:42Z</time>
      </trkpt>
      <trkpt lat="45.90669" lon="-0.93413">
        <ele>16.48</ele>
        <time>2014-04-02T14:36:50Z</time>
      </trkpt>
      <trkpt lat="45.90664" lon="-0.93401">
        <ele>16.96</ele>
        <time>2014-04-02T14:36:58Z</time>
      </trkpt>
      <trkpt lat="45.90659" lon="-0.9339">
        <ele>16.96</ele>
        <time>2014-04-02T14:37:06Z</time>
      </trkpt>
      <trkpt lat="45.90655" lon="-0.93378">
        <ele>16.96</ele>
        <time>2014-04-02T14:37:13Z</time>
      </trkpt>
      <trkpt lat="45.9065" lon="-0.93366">
        <ele>16.96</ele>
        <time>2014-04-02T14:37:20Z</time>
      </trkpt>
      <trkpt lat="45.90644" lon="-0.93355">
        <ele>16.48</ele>
        <time>2014-04-02T14:37:28Z</time>
      </trkpt>
      <trkpt lat="45.90638" lon="-0.93344">
        <ele>13.12</ele>
        <time>2014-04-02T14:37:36Z</time>
      </trkpt>
      <trkpt lat="45.90632" lon="-0.93333">
        <ele>16.48</ele>
        <time>2014-04-02T14:37:43Z</time>
      </trkpt>
      <trkpt lat="45.90628" lon="-0.93322">
        <ele>16.48</ele>
        <time>2014-04-02T14:37:50Z</time>
      </trkpt>
      <trkpt lat="45.90623" lon="-0.93313">
        <ele>16.48</ele>
        <time>2014-04-02T14:37:57Z</time>
      </trkpt>
      <trkpt lat="45.90617" lon="-0.93301">
        <ele>15.52</ele>
        <time>2014-04-02T14:38:05Z</time>
      </trkpt>
      <trkpt lat="45.9061" lon="-0.93293">
        <ele>15.04</ele>
        <time>2014-04-02T14:38:12Z</time>
      </trkpt>
      <trkpt lat="45.90605" lon="-0.93283">
        <ele>15.52</ele>
        <time>2014-04-02T14:38:20Z</time>
      </trkpt>
      <trkpt lat="45.90601" lon="-0.93271">
        <ele>15.52</ele>
        <time>2014-04-02T14:38:28Z</time>
      </trkpt>
      <trkpt lat="45.90596" lon="-0.93259">
        <ele>15.04</ele>
        <time>2014-04-02T14:38:36Z</time>
      </trkpt>
      <trkpt lat="45.9059" lon="-0.93247">
        <ele>15.04</ele>
        <time>2014-04-02T14:38:43Z</time>
      </trkpt>
      <trkpt lat="45.90586" lon="-0.93234">
        <ele>15.04</ele>
        <time>2014-04-02T14:38:49Z</time>
      </trkpt>
      <trkpt lat="45.90582" lon="-0.93222">
        <ele>14.56</ele>
        <time>2014-04-02T14:38:57Z</time>
      </trkpt>
      <trkpt lat="45.90578" lon="-0.93211">
        <ele>14.56</ele>
        <time>2014-04-02T14:39:05Z</time>
      </trkpt>
      <trkpt lat="45.90577" lon="-0.93198">
        <ele>13.6</ele>
        <time>2014-04-02T14:39:12Z</time>
      </trkpt>
      <trkpt lat="45.90576" lon="-0.93185">
        <ele>13.6</ele>
        <time>2014-04-02T14:39:20Z</time>
      </trkpt>
      <trkpt lat="45.90574" lon="-0.93172">
        <ele>13.6</ele>
        <time>2014-04-02T14:39:28Z</time>
      </trkpt>
      <trkpt lat="45.90574" lon="-0.93156">
        <ele>13.12</ele>
        <time>2014-04-02T14:39:38Z</time>
      </trkpt>
      <trkpt lat="45.90572" lon="-0.93141">
        <ele>12.15</ele>
        <time>2014-04-02T14:39:46Z</time>
      </trkpt>
      <trkpt lat="45.90572" lon="-0.93126">
        <ele>12.15</ele>
        <time>2014-04-02T14:39:54Z</time>
      </trkpt>
      <trkpt lat="45.90569" lon="-0.93112">
        <ele>12.15</ele>
        <time>2014-04-02T14:40:02Z</time>
      </trkpt>
      <trkpt lat="45.90567" lon="-0.93099">
        <ele>11.67</ele>
        <time>2014-04-02T14:40:10Z</time>
      </trkpt>
      <trkpt lat="45.90564" lon="-0.93084">
        <ele>12.15</ele>
        <time>2014-04-02T14:40:18Z</time>
      </trkpt>
      <trkpt lat="45.90559" lon="-0.93075">
        <ele>12.15</ele>
        <time>2014-04-02T14:40:28Z</time>
      </trkpt>
      <trkpt lat="45.90553" lon="-0.9306">
        <ele>12.15</ele>
        <time>2014-04-02T14:40:38Z</time>
      </trkpt>
      <trkpt lat="45.90548" lon="-0.93046">
        <ele>12.63</ele>
        <time>2014-04-02T14:40:49Z</time>
      </trkpt>
      <trkpt lat="45.9054" lon="-0.93034">
        <ele>12.15</ele>
        <time>2014-04-02T14:40:57Z</time>
      </trkpt>
      <trkpt lat="45.90534" lon="-0.93021">
        <ele>12.15</ele>
        <time>2014-04-02T14:41:08Z</time>
      </trkpt>
      <trkpt lat="45.90527" lon="-0.93006">
        <ele>12.15</ele>
        <time>2014-04-02T14:41:18Z</time>
      </trkpt>
      <trkpt lat="45.9052" lon="-0.92991">
        <ele>12.15</ele>
        <time>2014-04-02T14:41:29Z</time>
      </trkpt>
      <trkpt lat="45.90511" lon="-0.92977">
        <ele>12.63</ele>
        <time>2014-04-02T14:41:37Z</time>
      </trkpt>
      <trkpt lat="45.90505" lon="-0.92963">
        <ele>12.63</ele>
        <time>2014-04-02T14:41:45Z</time>
      </trkpt>
      <trkpt lat="45.90499" lon="-0.92953">
        <ele>12.15</ele>
        <time>2014-04-02T14:41:53Z</time>
      </trkpt>
      <trkpt lat="45.90493" lon="-0.9294">
        <ele>12.63</ele>
        <time>2014-04-02T14:42:03Z</time>
      </trkpt>
      <trkpt lat="45.90486" lon="-0.92935">
        <ele>12.63</ele>
        <time>2014-04-02T14:43:01Z</time>
      </trkpt>
      <trkpt lat="45.90474" lon="-0.92936">
        <ele>12.15</ele>
        <time>2014-04-02T14:43:36Z</time>
      </trkpt>
      <trkpt lat="45.90469" lon="-0.92938">
        <ele>12.15</ele>
        <time>2014-04-02T14:44:21Z</time>
      </trkpt>
      <trkpt lat="45.90462" lon="-0.92942">
        <ele>12.15</ele>
        <time>2014-04-02T14:45:15Z</time>
      </trkpt>
      <trkpt lat="45.90451" lon="-0.92945">
        <ele>11.67</ele>
        <time>2014-04-02T14:46:16Z</time>
      </trkpt>
      <trkpt lat="45.9044" lon="-0.92949">
        <ele>11.67</ele>
        <time>2014-04-02T14:46:27Z</time>
      </trkpt>
      <trkpt lat="45.9043" lon="-0.92952">
        <ele>11.67</ele>
        <time>2014-04-02T14:46:36Z</time>
      </trkpt>
      <trkpt lat="45.9042" lon="-0.92956">
        <ele>11.67</ele>
        <time>2014-04-02T14:46:46Z</time>
      </trkpt>
      <trkpt lat="45.90411" lon="-0.92957">
        <ele>11.67</ele>
        <time>2014-04-02T14:46:54Z</time>
      </trkpt>
      <trkpt lat="45.90402" lon="-0.92961">
        <ele>11.19</ele>
        <time>2014-04-02T14:47:00Z</time>
      </trkpt>
      <trkpt lat="45.90394" lon="-0.92965">
        <ele>11.67</ele>
        <time>2014-04-02T14:47:07Z</time>
      </trkpt>
      <trkpt lat="45.90386" lon="-0.92968">
        <ele>11.67</ele>
        <time>2014-04-02T14:47:14Z</time>
      </trkpt>
      <trkpt lat="45.90376" lon="-0.92969">
        <ele>11.67</ele>
        <time>2014-04-02T14:47:21Z</time>
      </trkpt>
      <trkpt lat="45.90366" lon="-0.92972">
        <ele>11.19</ele>
        <time>2014-04-02T14:47:29Z</time>
      </trkpt>
      <trkpt lat="45.90357" lon="-0.92974">
        <ele>11.67</ele>
        <time>2014-04-02T14:47:38Z</time>
      </trkpt>
      <trkpt lat="45.90347" lon="-0.92976">
        <ele>11.19</ele>
        <time>2014-04-02T14:47:47Z</time>
      </trkpt>
      <trkpt lat="45.90336" lon="-0.9298">
        <ele>11.19</ele>
        <time>2014-04-02T14:47:58Z</time>
      </trkpt>
      <trkpt lat="45.90324" lon="-0.92983">
        <ele>11.19</ele>
        <time>2014-04-02T14:48:06Z</time>
      </trkpt>
      <trkpt lat="45.90315" lon="-0.92986">
        <ele>11.19</ele>
        <time>2014-04-02T14:48:14Z</time>
      </trkpt>
      <trkpt lat="45.90306" lon="-0.92989">
        <ele>11.19</ele>
        <time>2014-04-02T14:48:23Z</time>
      </trkpt>
      <trkpt lat="45.90294" lon="-0.92993">
        <ele>11.67</ele>
        <time>2014-04-02T14:48:32Z</time>
      </trkpt>
      <trkpt lat="45.90283" lon="-0.92997">
        <ele>11.19</ele>
        <time>2014-04-02T14:48:42Z</time>
      </trkpt>
      <trkpt lat="45.90272" lon="-0.92997">
        <ele>11.19</ele>
        <time>2014-04-02T14:48:51Z</time>
      </trkpt>
      <trkpt lat="45.90259" lon="-0.92998">
        <ele>11.67</ele>
        <time>2014-04-02T14:49:03Z</time>
      </trkpt>
      <trkpt lat="45.9024" lon="-0.93007">
        <ele>11.67</ele>
        <time>2014-04-02T14:49:15Z</time>
      </trkpt>
      <trkpt lat="45.90227" lon="-0.93011">
        <ele>12.15</ele>
        <time>2014-04-02T14:49:22Z</time>
      </trkpt>
      <trkpt lat="45.90215" lon="-0.93014">
        <ele>11.67</ele>
        <time>2014-04-02T14:49:30Z</time>
      </trkpt>
      <trkpt lat="45.90205" lon="-0.93016">
        <ele>11.67</ele>
        <time>2014-04-02T14:49:37Z</time>
      </trkpt>
      <trkpt lat="45.90197" lon="-0.93018">
        <ele>11.67</ele>
        <time>2014-04-02T14:49:46Z</time>
      </trkpt>
      <trkpt lat="45.90188" lon="-0.93022">
        <ele>11.67</ele>
        <time>2014-04-02T14:49:54Z</time>
      </trkpt>
      <trkpt lat="45.90179" lon="-0.93026">
        <ele>11.67</ele>
        <time>2014-04-02T14:50:02Z</time>
      </trkpt>
      <trkpt lat="45.9017" lon="-0.93027">
        <ele>11.67</ele>
        <time>2014-04-02T14:50:11Z</time>
      </trkpt>
      <trkpt lat="45.90159" lon="-0.9303">
        <ele>11.67</ele>
        <time>2014-04-02T14:50:20Z</time>
      </trkpt>
      <trkpt lat="45.90146" lon="-0.93034">
        <ele>11.19</ele>
        <time>2014-04-02T14:50:30Z</time>
      </trkpt>
      <trkpt lat="45.90135" lon="-0.93036">
        <ele>11.67</ele>
        <time>2014-04-02T14:50:39Z</time>
      </trkpt>
      <trkpt lat="45.90125" lon="-0.9304">
        <ele>12.15</ele>
        <time>2014-04-02T14:50:48Z</time>
      </trkpt>
      <trkpt lat="45.90114" lon="-0.93044">
        <ele>11.67</ele>
        <time>2014-04-02T14:50:58Z</time>
      </trkpt>
      <trkpt lat="45.90103" lon="-0.93047">
        <ele>11.19</ele>
        <time>2014-04-02T14:51:07Z</time>
      </trkpt>
      <trkpt lat="45.90092" lon="-0.9305">
        <ele>11.19</ele>
        <time>2014-04-02T14:51:15Z</time>
      </trkpt>
      <trkpt lat="45.90081" lon="-0.93053">
        <ele>11.67</ele>
        <time>2014-04-02T14:51:22Z</time>
      </trkpt>
      <trkpt lat="45.90071" lon="-0.93057">
        <ele>12.15</ele>
        <time>2014-04-02T14:51:31Z</time>
      </trkpt>
      <trkpt lat="45.9006" lon="-0.93059">
        <ele>11.67</ele>
        <time>2014-04-02T14:51:40Z</time>
      </trkpt>
      <trkpt lat="45.90049" lon="-0.93063">
        <ele>11.67</ele>
        <time>2014-04-02T14:51:48Z</time>
      </trkpt>
      <trkpt lat="45.90039" lon="-0.93065">
        <ele>11.67</ele>
        <time>2014-04-02T14:51:56Z</time>
      </trkpt>
      <trkpt lat="45.90029" lon="-0.93067">
        <ele>12.15</ele>
        <time>2014-04-02T14:52:04Z</time>
      </trkpt>
      <trkpt lat="45.9002" lon="-0.9307">
        <ele>11.67</ele>
        <time>2014-04-02T14:52:11Z</time>
      </trkpt>
      <trkpt lat="45.9001" lon="-0.93074">
        <ele>11.19</ele>
        <time>2014-04-02T14:52:19Z</time>
      </trkpt>
      <trkpt lat="45.89999" lon="-0.93077">
        <ele>11.19</ele>
        <time>2014-04-02T14:52:28Z</time>
      </trkpt>
      <trkpt lat="45.89987" lon="-0.9308">
        <ele>11.19</ele>
        <time>2014-04-02T14:52:37Z</time>
      </trkpt>
      <trkpt lat="45.89976" lon="-0.93084">
        <ele>11.67</ele>
        <time>2014-04-02T14:52:46Z</time>
      </trkpt>
      <trkpt lat="45.89965" lon="-0.93086">
        <ele>11.19</ele>
        <time>2014-04-02T14:52:55Z</time>
      </trkpt>
      <trkpt lat="45.89954" lon="-0.93089">
        <ele>11.67</ele>
        <time>2014-04-02T14:53:03Z</time>
      </trkpt>
      <trkpt lat="45.89944" lon="-0.93092">
        <ele>11.19</ele>
        <time>2014-04-02T14:53:11Z</time>
      </trkpt>
      <trkpt lat="45.89934" lon="-0.93095">
        <ele>10.71</ele>
        <time>2014-04-02T14:53:19Z</time>
      </trkpt>
      <trkpt lat="45.89925" lon="-0.93096">
        <ele>11.19</ele>
        <time>2014-04-02T14:53:27Z</time>
      </trkpt>
      <trkpt lat="45.89916" lon="-0.931">
        <ele>11.19</ele>
        <time>2014-04-02T14:53:35Z</time>
      </trkpt>
      <trkpt lat="45.89906" lon="-0.93102">
        <ele>10.71</ele>
        <time>2014-04-02T14:53:42Z</time>
      </trkpt>
      <trkpt lat="45.89896" lon="-0.93104">
        <ele>10.23</ele>
        <time>2014-04-02T14:53:50Z</time>
      </trkpt>
      <trkpt lat="45.89886" lon="-0.93105">
        <ele>10.71</ele>
        <time>2014-04-02T14:53:59Z</time>
      </trkpt>
      <trkpt lat="45.89876" lon="-0.93107">
        <ele>10.23</ele>
        <time>2014-04-02T14:54:07Z</time>
      </trkpt>
      <trkpt lat="45.89867" lon="-0.93108">
        <ele>10.71</ele>
        <time>2014-04-02T14:54:15Z</time>
      </trkpt>
      <trkpt lat="45.89856" lon="-0.93107">
        <ele>10.71</ele>
        <time>2014-04-02T14:54:25Z</time>
      </trkpt>
      <trkpt lat="45.89843" lon="-0.93109">
        <ele>10.71</ele>
        <time>2014-04-02T14:54:35Z</time>
      </trkpt>
      <trkpt lat="45.89831" lon="-0.93107">
        <ele>10.71</ele>
        <time>2014-04-02T14:54:45Z</time>
      </trkpt>
      <trkpt lat="45.89819" lon="-0.93105">
        <ele>10.71</ele>
        <time>2014-04-02T14:54:53Z</time>
      </trkpt>
      <trkpt lat="45.89807" lon="-0.93103">
        <ele>10.71</ele>
        <time>2014-04-02T14:55:02Z</time>
      </trkpt>
      <trkpt lat="45.89794" lon="-0.93104">
        <ele>11.19</ele>
        <time>2014-04-02T14:55:11Z</time>
      </trkpt>
      <trkpt lat="45.89784" lon="-0.93104">
        <ele>10.71</ele>
        <time>2014-04-02T14:55:20Z</time>
      </trkpt>
      <trkpt lat="45.89772" lon="-0.93105">
        <ele>10.23</ele>
        <time>2014-04-02T14:55:31Z</time>
      </trkpt>
      <trkpt lat="45.89761" lon="-0.93104">
        <ele>10.71</ele>
        <time>2014-04-02T14:55:40Z</time>
      </trkpt>
      <trkpt lat="45.89749" lon="-0.93105">
        <ele>10.71</ele>
        <time>2014-04-02T14:55:51Z</time>
      </trkpt>
      <trkpt lat="45.89737" lon="-0.93104">
        <ele>10.71</ele>
        <time>2014-04-02T14:56:03Z</time>
      </trkpt>
      <trkpt lat="45.89724" lon="-0.93103">
        <ele>10.71</ele>
        <time>2014-04-02T14:56:14Z</time>
      </trkpt>
      <trkpt lat="45.89709" lon="-0.93103">
        <ele>11.67</ele>
        <time>2014-04-02T14:56:28Z</time>
      </trkpt>
      <trkpt lat="45.89692" lon="-0.93102">
        <ele>11.67</ele>
        <time>2014-04-02T14:56:41Z</time>
      </trkpt>
      <trkpt lat="45.89678" lon="-0.93096">
        <ele>12.15</ele>
        <time>2014-04-02T14:56:53Z</time>
      </trkpt>
      <trkpt lat="45.89666" lon="-0.93095">
        <ele>11.67</ele>
        <time>2014-04-02T14:57:03Z</time>
      </trkpt>
      <trkpt lat="45.89654" lon="-0.93092">
        <ele>11.67</ele>
        <time>2014-04-02T14:57:11Z</time>
      </trkpt>
      <trkpt lat="45.89643" lon="-0.93093">
        <ele>10.71</ele>
        <time>2014-04-02T14:57:18Z</time>
      </trkpt>
      <trkpt lat="45.89631" lon="-0.9309">
        <ele>10.71</ele>
        <time>2014-04-02T14:57:27Z</time>
      </trkpt>
      <trkpt lat="45.89622" lon="-0.93087">
        <ele>10.71</ele>
        <time>2014-04-02T14:57:37Z</time>
      </trkpt>
      <trkpt lat="45.89607" lon="-0.93086">
        <ele>9.27</ele>
        <time>2014-04-02T14:57:45Z</time>
      </trkpt>
      <trkpt lat="45.89596" lon="-0.93088">
        <ele>10.71</ele>
        <time>2014-04-02T14:57:54Z</time>
      </trkpt>
      <trkpt lat="45.89584" lon="-0.93087">
        <ele>10.71</ele>
        <time>2014-04-02T14:58:05Z</time>
      </trkpt>
      <trkpt lat="45.89572" lon="-0.93085">
        <ele>10.71</ele>
        <time>2014-04-02T14:58:14Z</time>
      </trkpt>
      <trkpt lat="45.89558" lon="-0.93086">
        <ele>10.71</ele>
        <time>2014-04-02T14:58:25Z</time>
      </trkpt>
      <trkpt lat="45.89547" lon="-0.93087">
        <ele>10.71</ele>
        <time>2014-04-02T14:58:35Z</time>
      </trkpt>
      <trkpt lat="45.8953" lon="-0.93084">
        <ele>10.23</ele>
        <time>2014-04-02T14:58:46Z</time>
      </trkpt>
      <trkpt lat="45.89516" lon="-0.9308">
        <ele>11.19</ele>
        <time>2014-04-02T14:58:59Z</time>
      </trkpt>
      <trkpt lat="45.89498" lon="-0.9308">
        <ele>10.23</ele>
        <time>2014-04-02T14:59:11Z</time>
      </trkpt>
      <trkpt lat="45.89484" lon="-0.93079">
        <ele>11.19</ele>
        <time>2014-04-02T14:59:21Z</time>
      </trkpt>
      <trkpt lat="45.89469" lon="-0.93077">
        <ele>11.19</ele>
        <time>2014-04-02T14:59:32Z</time>
      </trkpt>
      <trkpt lat="45.89458" lon="-0.93078">
        <ele>10.71</ele>
        <time>2014-04-02T14:59:42Z</time>
      </trkpt>
      <trkpt lat="45.89443" lon="-0.93076">
        <ele>10.71</ele>
        <time>2014-04-02T14:59:53Z</time>
      </trkpt>
      <trkpt lat="45.89431" lon="-0.93076">
        <ele>10.71</ele>
        <time>2014-04-02T15:00:02Z</time>
      </trkpt>
      <trkpt lat="45.8942" lon="-0.93076">
        <ele>10.71</ele>
        <time>2014-04-02T15:00:11Z</time>
      </trkpt>
      <trkpt lat="45.89407" lon="-0.93072">
        <ele>10.23</ele>
        <time>2014-04-02T15:00:21Z</time>
      </trkpt>
      <trkpt lat="45.89396" lon="-0.93072">
        <ele>11.19</ele>
        <time>2014-04-02T15:00:31Z</time>
      </trkpt>
      <trkpt lat="45.89381" lon="-0.93072">
        <ele>11.67</ele>
        <time>2014-04-02T15:00:42Z</time>
      </trkpt>
      <trkpt lat="45.89362" lon="-0.93068">
        <ele>11.19</ele>
        <time>2014-04-02T15:00:58Z</time>
      </trkpt>
      <trkpt lat="45.89348" lon="-0.93067">
        <ele>11.67</ele>
        <time>2014-04-02T15:01:09Z</time>
      </trkpt>
      <trkpt lat="45.89333" lon="-0.93064">
        <ele>11.19</ele>
        <time>2014-04-02T15:01:20Z</time>
      </trkpt>
      <trkpt lat="45.89318" lon="-0.93064">
        <ele>11.19</ele>
        <time>2014-04-02T15:01:32Z</time>
      </trkpt>
      <trkpt lat="45.89305" lon="-0.93071">
        <ele>12.15</ele>
        <time>2014-04-02T15:01:45Z</time>
      </trkpt>
      <trkpt lat="45.89287" lon="-0.93077">
        <ele>12.15</ele>
        <time>2014-04-02T15:01:54Z</time>
      </trkpt>
      <trkpt lat="45.89276" lon="-0.93086">
        <ele>11.19</ele>
        <time>2014-04-02T15:02:01Z</time>
      </trkpt>
      <trkpt lat="45.89266" lon="-0.93094">
        <ele>12.15</ele>
        <time>2014-04-02T15:02:11Z</time>
      </trkpt>
      <trkpt lat="45.89257" lon="-0.93108">
        <ele>12.15</ele>
        <time>2014-04-02T15:02:22Z</time>
      </trkpt>
      <trkpt lat="45.89249" lon="-0.9312">
        <ele>12.63</ele>
        <time>2014-04-02T15:02:31Z</time>
      </trkpt>
      <trkpt lat="45.8924" lon="-0.93135">
        <ele>13.12</ele>
        <time>2014-04-02T15:02:41Z</time>
      </trkpt>
      <trkpt lat="45.89229" lon="-0.93145">
        <ele>13.12</ele>
        <time>2014-04-02T15:02:50Z</time>
      </trkpt>
      <trkpt lat="45.89221" lon="-0.93159">
        <ele>13.12</ele>
        <time>2014-04-02T15:03:00Z</time>
      </trkpt>
      <trkpt lat="45.89212" lon="-0.93172">
        <ele>13.12</ele>
        <time>2014-04-02T15:03:08Z</time>
      </trkpt>
      <trkpt lat="45.89204" lon="-0.93183">
        <ele>13.12</ele>
        <time>2014-04-02T15:03:17Z</time>
      </trkpt>
      <trkpt lat="45.89195" lon="-0.93197">
        <ele>12.15</ele>
        <time>2014-04-02T15:03:27Z</time>
      </trkpt>
      <trkpt lat="45.89188" lon="-0.93207">
        <ele>12.15</ele>
        <time>2014-04-02T15:03:35Z</time>
      </trkpt>
      <trkpt lat="45.8918" lon="-0.93216">
        <ele>12.15</ele>
        <time>2014-04-02T15:03:44Z</time>
      </trkpt>
      <trkpt lat="45.89171" lon="-0.93225">
        <ele>11.67</ele>
        <time>2014-04-02T15:03:52Z</time>
      </trkpt>
      <trkpt lat="45.89164" lon="-0.93236">
        <ele>11.19</ele>
        <time>2014-04-02T15:04:00Z</time>
      </trkpt>
      <trkpt lat="45.89156" lon="-0.93248">
        <ele>11.67</ele>
        <time>2014-04-02T15:04:08Z</time>
      </trkpt>
      <trkpt lat="45.89149" lon="-0.93257">
        <ele>11.67</ele>
        <time>2014-04-02T15:04:16Z</time>
      </trkpt>
      <trkpt lat="45.89143" lon="-0.93271">
        <ele>12.15</ele>
        <time>2014-04-02T15:04:26Z</time>
      </trkpt>
      <trkpt lat="45.89136" lon="-0.93284">
        <ele>11.19</ele>
        <time>2014-04-02T15:04:34Z</time>
      </trkpt>
      <trkpt lat="45.89128" lon="-0.93295">
        <ele>11.19</ele>
        <time>2014-04-02T15:04:44Z</time>
      </trkpt>
      <trkpt lat="45.8912" lon="-0.93307">
        <ele>11.19</ele>
        <time>2014-04-02T15:04:53Z</time>
      </trkpt>
      <trkpt lat="45.89113" lon="-0.93318">
        <ele>11.67</ele>
        <time>2014-04-02T15:05:02Z</time>
      </trkpt>
      <trkpt lat="45.89104" lon="-0.93333">
        <ele>11.67</ele>
        <time>2014-04-02T15:05:12Z</time>
      </trkpt>
      <trkpt lat="45.89095" lon="-0.93343">
        <ele>12.15</ele>
        <time>2014-04-02T15:05:21Z</time>
      </trkpt>
      <trkpt lat="45.89089" lon="-0.93358">
        <ele>11.67</ele>
        <time>2014-04-02T15:05:29Z</time>
      </trkpt>
      <trkpt lat="45.89081" lon="-0.93371">
        <ele>12.15</ele>
        <time>2014-04-02T15:05:38Z</time>
      </trkpt>
      <trkpt lat="45.89074" lon="-0.93382">
        <ele>11.19</ele>
        <time>2014-04-02T15:05:47Z</time>
      </trkpt>
      <trkpt lat="45.89065" lon="-0.93389">
        <ele>12.15</ele>
        <time>2014-04-02T15:05:55Z</time>
      </trkpt>
      <trkpt lat="45.89059" lon="-0.93397">
        <ele>12.15</ele>
        <time>2014-04-02T15:06:05Z</time>
      </trkpt>
      <trkpt lat="45.89052" lon="-0.9341">
        <ele>11.67</ele>
        <time>2014-04-02T15:06:20Z</time>
      </trkpt>
      <trkpt lat="45.89054" lon="-0.93417">
        <ele>11.67</ele>
        <time>2014-04-02T15:07:52Z</time>
      </trkpt>
      <trkpt lat="45.89056" lon="-0.93419">
        <ele>11.67</ele>
        <time>2014-04-02T15:12:10Z</time>
      </trkpt>
      <trkpt lat="45.89072" lon="-0.93439">
        <ele>12.15</ele>
        <time>2014-04-02T15:12:33Z</time>
      </trkpt>
      <trkpt lat="45.89074" lon="-0.93457">
        <ele>12.63</ele>
        <time>2014-04-02T15:12:42Z</time>
      </trkpt>
      <trkpt lat="45.89079" lon="-0.93472">
        <ele>12.63</ele>
        <time>2014-04-02T15:12:53Z</time>
      </trkpt>
      <trkpt lat="45.89083" lon="-0.9349">
        <ele>13.6</ele>
        <time>2014-04-02T15:13:05Z</time>
      </trkpt>
      <trkpt lat="45.89089" lon="-0.93505">
        <ele>14.08</ele>
        <time>2014-04-02T15:13:14Z</time>
      </trkpt>
      <trkpt lat="45.89096" lon="-0.93517">
        <ele>14.56</ele>
        <time>2014-04-02T15:13:23Z</time>
      </trkpt>
      <trkpt lat="45.89105" lon="-0.93529">
        <ele>15.04</ele>
        <time>2014-04-02T15:13:34Z</time>
      </trkpt>
      <trkpt lat="45.89112" lon="-0.93546">
        <ele>15.04</ele>
        <time>2014-04-02T15:13:45Z</time>
      </trkpt>
      <trkpt lat="45.89119" lon="-0.93561">
        <ele>15.04</ele>
        <time>2014-04-02T15:13:55Z</time>
      </trkpt>
      <trkpt lat="45.89126" lon="-0.93573">
        <ele>15.52</ele>
        <time>2014-04-02T15:14:05Z</time>
      </trkpt>
      <trkpt lat="45.89133" lon="-0.93587">
        <ele>16</ele>
        <time>2014-04-02T15:14:14Z</time>
      </trkpt>
      <trkpt lat="45.89137" lon="-0.93601">
        <ele>15.52</ele>
        <time>2014-04-02T15:14:23Z</time>
      </trkpt>
      <trkpt lat="45.89143" lon="-0.93613">
        <ele>15.52</ele>
        <time>2014-04-02T15:14:32Z</time>
      </trkpt>
      <trkpt lat="45.8915" lon="-0.93625">
        <ele>15.52</ele>
        <time>2014-04-02T15:14:41Z</time>
      </trkpt>
      <trkpt lat="45.89155" lon="-0.93638">
        <ele>16</ele>
        <time>2014-04-02T15:14:49Z</time>
      </trkpt>
      <trkpt lat="45.89162" lon="-0.93649">
        <ele>16.48</ele>
        <time>2014-04-02T15:14:58Z</time>
      </trkpt>
      <trkpt lat="45.89169" lon="-0.93661">
        <ele>16</ele>
        <time>2014-04-02T15:15:06Z</time>
      </trkpt>
      <trkpt lat="45.89175" lon="-0.93674">
        <ele>16.96</ele>
        <time>2014-04-02T15:15:14Z</time>
      </trkpt>
      <trkpt lat="45.8918" lon="-0.93685">
        <ele>16.48</ele>
        <time>2014-04-02T15:15:22Z</time>
      </trkpt>
      <trkpt lat="45.89186" lon="-0.93697">
        <ele>16.48</ele>
        <time>2014-04-02T15:15:30Z</time>
      </trkpt>
      <trkpt lat="45.89192" lon="-0.9371">
        <ele>16.48</ele>
        <time>2014-04-02T15:15:39Z</time>
      </trkpt>
      <trkpt lat="45.89199" lon="-0.93722">
        <ele>16.96</ele>
        <time>2014-04-02T15:15:49Z</time>
      </trkpt>
      <trkpt lat="45.89206" lon="-0.93735">
        <ele>16.96</ele>
        <time>2014-04-02T15:15:58Z</time>
      </trkpt>
      <trkpt lat="45.89212" lon="-0.93746">
        <ele>17.44</ele>
        <time>2014-04-02T15:16:07Z</time>
      </trkpt>
      <trkpt lat="45.89221" lon="-0.93762">
        <ele>17.44</ele>
        <time>2014-04-02T15:16:20Z</time>
      </trkpt>
      <trkpt lat="45.89226" lon="-0.93779">
        <ele>17.44</ele>
        <time>2014-04-02T15:16:30Z</time>
      </trkpt>
      <trkpt lat="45.89233" lon="-0.93798">
        <ele>17.44</ele>
        <time>2014-04-02T15:16:42Z</time>
      </trkpt>
      <trkpt lat="45.8924" lon="-0.93812">
        <ele>17.44</ele>
        <time>2014-04-02T15:16:50Z</time>
      </trkpt>
      <trkpt lat="45.89244" lon="-0.93826">
        <ele>17.44</ele>
        <time>2014-04-02T15:16:58Z</time>
      </trkpt>
      <trkpt lat="45.89249" lon="-0.9384">
        <ele>17.44</ele>
        <time>2014-04-02T15:17:07Z</time>
      </trkpt>
      <trkpt lat="45.89253" lon="-0.93855">
        <ele>17.44</ele>
        <time>2014-04-02T15:17:16Z</time>
      </trkpt>
      <trkpt lat="45.89256" lon="-0.93869">
        <ele>17.44</ele>
        <time>2014-04-02T15:17:24Z</time>
      </trkpt>
      <trkpt lat="45.8926" lon="-0.93882">
        <ele>17.44</ele>
        <time>2014-04-02T15:17:33Z</time>
      </trkpt>
      <trkpt lat="45.89267" lon="-0.93897">
        <ele>17.44</ele>
        <time>2014-04-02T15:17:41Z</time>
      </trkpt>
      <trkpt lat="45.89271" lon="-0.93911">
        <ele>17.44</ele>
        <time>2014-04-02T15:17:50Z</time>
      </trkpt>
      <trkpt lat="45.89277" lon="-0.93923">
        <ele>17.92</ele>
        <time>2014-04-02T15:17:59Z</time>
      </trkpt>
      <trkpt lat="45.89285" lon="-0.9394">
        <ele>17.44</ele>
        <time>2014-04-02T15:18:12Z</time>
      </trkpt>
      <trkpt lat="45.89294" lon="-0.93951">
        <ele>17.44</ele>
        <time>2014-04-02T15:18:23Z</time>
      </trkpt>
      <trkpt lat="45.89305" lon="-0.93959">
        <ele>17.92</ele>
        <time>2014-04-02T15:18:33Z</time>
      </trkpt>
      <trkpt lat="45.89315" lon="-0.9397">
        <ele>17.92</ele>
        <time>2014-04-02T15:18:43Z</time>
      </trkpt>
      <trkpt lat="45.89327" lon="-0.93984">
        <ele>17.92</ele>
        <time>2014-04-02T15:18:53Z</time>
      </trkpt>
      <trkpt lat="45.8933" lon="-0.94001">
        <ele>17.92</ele>
        <time>2014-04-02T15:19:06Z</time>
      </trkpt>
      <trkpt lat="45.89327" lon="-0.94023">
        <ele>18.4</ele>
        <time>2014-04-02T15:19:18Z</time>
      </trkpt>
      <trkpt lat="45.89323" lon="-0.94038">
        <ele>18.4</ele>
        <time>2014-04-02T15:19:28Z</time>
      </trkpt>
      <trkpt lat="45.89317" lon="-0.94054">
        <ele>17.92</ele>
        <time>2014-04-02T15:19:38Z</time>
      </trkpt>
      <trkpt lat="45.89313" lon="-0.9407">
        <ele>18.88</ele>
        <time>2014-04-02T15:19:48Z</time>
      </trkpt>
      <trkpt lat="45.89308" lon="-0.94084">
        <ele>18.4</ele>
        <time>2014-04-02T15:19:56Z</time>
      </trkpt>
      <trkpt lat="45.89305" lon="-0.94099">
        <ele>18.4</ele>
        <time>2014-04-02T15:20:05Z</time>
      </trkpt>
      <trkpt lat="45.89307" lon="-0.94115">
        <ele>18.88</ele>
        <time>2014-04-02T15:20:14Z</time>
      </trkpt>
      <trkpt lat="45.89312" lon="-0.94129">
        <ele>18.4</ele>
        <time>2014-04-02T15:20:22Z</time>
      </trkpt>
      <trkpt lat="45.89315" lon="-0.94143">
        <ele>18.88</ele>
        <time>2014-04-02T15:20:30Z</time>
      </trkpt>
      <trkpt lat="45.89318" lon="-0.94156">
        <ele>18.88</ele>
        <time>2014-04-02T15:20:39Z</time>
      </trkpt>
      <trkpt lat="45.89322" lon="-0.94171">
        <ele>18.88</ele>
        <time>2014-04-02T15:20:47Z</time>
      </trkpt>
      <trkpt lat="45.89326" lon="-0.94185">
        <ele>18.88</ele>
        <time>2014-04-02T15:20:56Z</time>
      </trkpt>
      <trkpt lat="45.89329" lon="-0.94197">
        <ele>18.88</ele>
        <time>2014-04-02T15:21:03Z</time>
      </trkpt>
      <trkpt lat="45.89332" lon="-0.9421">
        <ele>18.4</ele>
        <time>2014-04-02T15:21:11Z</time>
      </trkpt>
      <trkpt lat="45.89335" lon="-0.94223">
        <ele>18.4</ele>
        <time>2014-04-02T15:21:20Z</time>
      </trkpt>
      <trkpt lat="45.89338" lon="-0.94236">
        <ele>18.88</ele>
        <time>2014-04-02T15:21:28Z</time>
      </trkpt>
      <trkpt lat="45.89341" lon="-0.9425">
        <ele>18.88</ele>
        <time>2014-04-02T15:21:36Z</time>
      </trkpt>
      <trkpt lat="45.89347" lon="-0.94264">
        <ele>18.4</ele>
        <time>2014-04-02T15:21:44Z</time>
      </trkpt>
      <trkpt lat="45.89351" lon="-0.94277">
        <ele>18.88</ele>
        <time>2014-04-02T15:21:52Z</time>
      </trkpt>
      <trkpt lat="45.89356" lon="-0.94288">
        <ele>18.4</ele>
        <time>2014-04-02T15:22:00Z</time>
      </trkpt>
      <trkpt lat="45.89362" lon="-0.94299">
        <ele>19.36</ele>
        <time>2014-04-02T15:22:08Z</time>
      </trkpt>
      <trkpt lat="45.8937" lon="-0.94308">
        <ele>18.88</ele>
        <time>2014-04-02T15:22:17Z</time>
      </trkpt>
      <trkpt lat="45.89377" lon="-0.94316">
        <ele>18.88</ele>
        <time>2014-04-02T15:22:25Z</time>
      </trkpt>
      <trkpt lat="45.89384" lon="-0.94327">
        <ele>18.88</ele>
        <time>2014-04-02T15:22:33Z</time>
      </trkpt>
      <trkpt lat="45.8939" lon="-0.94338">
        <ele>19.36</ele>
        <time>2014-04-02T15:22:41Z</time>
      </trkpt>
      <trkpt lat="45.89397" lon="-0.94348">
        <ele>18.88</ele>
        <time>2014-04-02T15:22:49Z</time>
      </trkpt>
      <trkpt lat="45.89403" lon="-0.94359">
        <ele>19.36</ele>
        <time>2014-04-02T15:22:57Z</time>
      </trkpt>
      <trkpt lat="45.89408" lon="-0.94373">
        <ele>19.36</ele>
        <time>2014-04-02T15:23:06Z</time>
      </trkpt>
      <trkpt lat="45.89412" lon="-0.94386">
        <ele>19.36</ele>
        <time>2014-04-02T15:23:16Z</time>
      </trkpt>
      <trkpt lat="45.89417" lon="-0.94399">
        <ele>19.36</ele>
        <time>2014-04-02T15:23:24Z</time>
      </trkpt>
      <trkpt lat="45.89422" lon="-0.94411">
        <ele>19.84</ele>
        <time>2014-04-02T15:23:32Z</time>
      </trkpt>
      <trkpt lat="45.89427" lon="-0.94424">
        <ele>19.84</ele>
        <time>2014-04-02T15:23:40Z</time>
      </trkpt>
      <trkpt lat="45.89433" lon="-0.94436">
        <ele>19.84</ele>
        <time>2014-04-02T15:23:48Z</time>
      </trkpt>
      <trkpt lat="45.89438" lon="-0.94449">
        <ele>20.32</ele>
        <time>2014-04-02T15:23:56Z</time>
      </trkpt>
      <trkpt lat="45.89444" lon="-0.94461">
        <ele>19.84</ele>
        <time>2014-04-02T15:24:04Z</time>
      </trkpt>
      <trkpt lat="45.89449" lon="-0.94473">
        <ele>19.84</ele>
        <time>2014-04-02T15:24:12Z</time>
      </trkpt>
      <trkpt lat="45.89454" lon="-0.94485">
        <ele>19.84</ele>
        <time>2014-04-02T15:24:20Z</time>
      </trkpt>
      <trkpt lat="45.89459" lon="-0.94496">
        <ele>19.84</ele>
        <time>2014-04-02T15:24:28Z</time>
      </trkpt>
      <trkpt lat="45.89465" lon="-0.94508">
        <ele>20.32</ele>
        <time>2014-04-02T15:24:36Z</time>
      </trkpt>
      <trkpt lat="45.89471" lon="-0.9452">
        <ele>19.84</ele>
        <time>2014-04-02T15:24:44Z</time>
      </trkpt>
      <trkpt lat="45.89477" lon="-0.94532">
        <ele>19.84</ele>
        <time>2014-04-02T15:24:53Z</time>
      </trkpt>
      <trkpt lat="45.89484" lon="-0.94544">
        <ele>20.32</ele>
        <time>2014-04-02T15:25:02Z</time>
      </trkpt>
      <trkpt lat="45.8949" lon="-0.94555">
        <ele>20.32</ele>
        <time>2014-04-02T15:25:10Z</time>
      </trkpt>
      <trkpt lat="45.89497" lon="-0.94565">
        <ele>20.81</ele>
        <time>2014-04-02T15:25:18Z</time>
      </trkpt>
      <trkpt lat="45.89503" lon="-0.94577">
        <ele>19.84</ele>
        <time>2014-04-02T15:25:27Z</time>
      </trkpt>
      <trkpt lat="45.89509" lon="-0.94587">
        <ele>19.84</ele>
        <time>2014-04-02T15:25:35Z</time>
      </trkpt>
      <trkpt lat="45.89516" lon="-0.94597">
        <ele>19.84</ele>
        <time>2014-04-02T15:25:43Z</time>
      </trkpt>
      <trkpt lat="45.89523" lon="-0.94607">
        <ele>19.84</ele>
        <time>2014-04-02T15:25:51Z</time>
      </trkpt>
      <trkpt lat="45.8953" lon="-0.94619">
        <ele>19.84</ele>
        <time>2014-04-02T15:26:00Z</time>
      </trkpt>
      <trkpt lat="45.89536" lon="-0.9463">
        <ele>19.84</ele>
        <time>2014-04-02T15:26:08Z</time>
      </trkpt>
      <trkpt lat="45.89543" lon="-0.94641">
        <ele>19.84</ele>
        <time>2014-04-02T15:26:17Z</time>
      </trkpt>
      <trkpt lat="45.8955" lon="-0.94652">
        <ele>19.36</ele>
        <time>2014-04-02T15:26:26Z</time>
      </trkpt>
      <trkpt lat="45.89557" lon="-0.94662">
        <ele>19.36</ele>
        <time>2014-04-02T15:26:34Z</time>
      </trkpt>
      <trkpt lat="45.89565" lon="-0.94675">
        <ele>19.84</ele>
        <time>2014-04-02T15:26:43Z</time>
      </trkpt>
      <trkpt lat="45.89572" lon="-0.94686">
        <ele>19.36</ele>
        <time>2014-04-02T15:26:52Z</time>
      </trkpt>
      <trkpt lat="45.89579" lon="-0.94697">
        <ele>19.36</ele>
        <time>2014-04-02T15:27:00Z</time>
      </trkpt>
      <trkpt lat="45.89587" lon="-0.94707">
        <ele>18.88</ele>
        <time>2014-04-02T15:27:09Z</time>
      </trkpt>
      <trkpt lat="45.89593" lon="-0.94718">
        <ele>18.88</ele>
        <time>2014-04-02T15:27:17Z</time>
      </trkpt>
      <trkpt lat="45.89601" lon="-0.94728">
        <ele>19.36</ele>
        <time>2014-04-02T15:27:26Z</time>
      </trkpt>
      <trkpt lat="45.89609" lon="-0.94739">
        <ele>18.88</ele>
        <time>2014-04-02T15:27:35Z</time>
      </trkpt>
      <trkpt lat="45.89616" lon="-0.94749">
        <ele>18.88</ele>
        <time>2014-04-02T15:27:43Z</time>
      </trkpt>
      <trkpt lat="45.89622" lon="-0.94757">
        <ele>18.88</ele>
        <time>2014-04-02T15:27:51Z</time>
      </trkpt>
      <trkpt lat="45.89631" lon="-0.94766">
        <ele>19.36</ele>
        <time>2014-04-02T15:27:59Z</time>
      </trkpt>
      <trkpt lat="45.89637" lon="-0.94775">
        <ele>18.4</ele>
        <time>2014-04-02T15:28:06Z</time>
      </trkpt>
      <trkpt lat="45.89643" lon="-0.94783">
        <ele>18.4</ele>
        <time>2014-04-02T15:28:13Z</time>
      </trkpt>
      <trkpt lat="45.89652" lon="-0.9479">
        <ele>18.88</ele>
        <time>2014-04-02T15:28:19Z</time>
      </trkpt>
      <trkpt lat="45.89659" lon="-0.94798">
        <ele>19.36</ele>
        <time>2014-04-02T15:28:28Z</time>
      </trkpt>
      <trkpt lat="45.89667" lon="-0.94805">
        <ele>18.88</ele>
        <time>2014-04-02T15:28:35Z</time>
      </trkpt>
      <trkpt lat="45.89674" lon="-0.94814">
        <ele>18.88</ele>
        <time>2014-04-02T15:28:43Z</time>
      </trkpt>
      <trkpt lat="45.89682" lon="-0.94821">
        <ele>18.88</ele>
        <time>2014-04-02T15:28:51Z</time>
      </trkpt>
      <trkpt lat="45.89689" lon="-0.94831">
        <ele>18.88</ele>
        <time>2014-04-02T15:28:59Z</time>
      </trkpt>
      <trkpt lat="45.89696" lon="-0.94841">
        <ele>18.88</ele>
        <time>2014-04-02T15:29:08Z</time>
      </trkpt>
      <trkpt lat="45.89704" lon="-0.94851">
        <ele>18.88</ele>
        <time>2014-04-02T15:29:16Z</time>
      </trkpt>
      <trkpt lat="45.8971" lon="-0.94861">
        <ele>17.92</ele>
        <time>2014-04-02T15:29:24Z</time>
      </trkpt>
      <trkpt lat="45.89717" lon="-0.9487">
        <ele>18.4</ele>
        <time>2014-04-02T15:29:33Z</time>
      </trkpt>
      <trkpt lat="45.89726" lon="-0.94881">
        <ele>17.92</ele>
        <time>2014-04-02T15:29:42Z</time>
      </trkpt>
      <trkpt lat="45.89732" lon="-0.94893">
        <ele>18.4</ele>
        <time>2014-04-02T15:29:50Z</time>
      </trkpt>
      <trkpt lat="45.89739" lon="-0.94903">
        <ele>17.92</ele>
        <time>2014-04-02T15:29:58Z</time>
      </trkpt>
      <trkpt lat="45.89746" lon="-0.94915">
        <ele>17.44</ele>
        <time>2014-04-02T15:30:07Z</time>
      </trkpt>
      <trkpt lat="45.89748" lon="-0.9493">
        <ele>17.44</ele>
        <time>2014-04-02T15:30:14Z</time>
      </trkpt>
      <trkpt lat="45.89751" lon="-0.94945">
        <ele>17.92</ele>
        <time>2014-04-02T15:30:25Z</time>
      </trkpt>
      <trkpt lat="45.89753" lon="-0.94958">
        <ele>17.44</ele>
        <time>2014-04-02T15:30:33Z</time>
      </trkpt>
      <trkpt lat="45.89755" lon="-0.94974">
        <ele>17.44</ele>
        <time>2014-04-02T15:30:42Z</time>
      </trkpt>
      <trkpt lat="45.89759" lon="-0.94988">
        <ele>17.44</ele>
        <time>2014-04-02T15:30:50Z</time>
      </trkpt>
      <trkpt lat="45.89762" lon="-0.95001">
        <ele>17.44</ele>
        <time>2014-04-02T15:30:58Z</time>
      </trkpt>
      <trkpt lat="45.89766" lon="-0.95016">
        <ele>17.44</ele>
        <time>2014-04-02T15:31:06Z</time>
      </trkpt>
      <trkpt lat="45.89769" lon="-0.95029">
        <ele>17.92</ele>
        <time>2014-04-02T15:31:15Z</time>
      </trkpt>
      <trkpt lat="45.89775" lon="-0.95041">
        <ele>16.96</ele>
        <time>2014-04-02T15:31:22Z</time>
      </trkpt>
      <trkpt lat="45.89778" lon="-0.95054">
        <ele>17.44</ele>
        <time>2014-04-02T15:31:32Z</time>
      </trkpt>
      <trkpt lat="45.89782" lon="-0.95067">
        <ele>16.96</ele>
        <time>2014-04-02T15:31:40Z</time>
      </trkpt>
      <trkpt lat="45.89785" lon="-0.95081">
        <ele>16.48</ele>
        <time>2014-04-02T15:31:50Z</time>
      </trkpt>
      <trkpt lat="45.89791" lon="-0.95093">
        <ele>16.48</ele>
        <time>2014-04-02T15:32:00Z</time>
      </trkpt>
      <trkpt lat="45.89798" lon="-0.95106">
        <ele>16.48</ele>
        <time>2014-04-02T15:32:15Z</time>
      </trkpt>
      <trkpt lat="45.89807" lon="-0.95111">
        <ele>16.48</ele>
        <time>2014-04-02T15:32:26Z</time>
      </trkpt>
      <trkpt lat="45.89815" lon="-0.95108">
        <ele>16.48</ele>
        <time>2014-04-02T15:32:39Z</time>
      </trkpt>
      <trkpt lat="45.89822" lon="-0.95107">
        <ele>16</ele>
        <time>2014-04-02T15:32:52Z</time>
      </trkpt>
      <trkpt lat="45.89828" lon="-0.9512">
        <ele>16</ele>
        <time>2014-04-02T15:33:51Z</time>
      </trkpt>
      <trkpt lat="45.89828" lon="-0.95127">
        <ele>16</ele>
        <time>2014-04-02T15:35:46Z</time>
      </trkpt>
      <trkpt lat="45.89826" lon="-0.9514">
        <ele>15.52</ele>
        <time>2014-04-02T15:35:58Z</time>
      </trkpt>
      <trkpt lat="45.89828" lon="-0.95155">
        <ele>15.52</ele>
        <time>2014-04-02T15:36:09Z</time>
      </trkpt>
      <trkpt lat="45.89825" lon="-0.95169">
        <ele>16.48</ele>
        <time>2014-04-02T15:36:17Z</time>
      </trkpt>
      <trkpt lat="45.89822" lon="-0.95182">
        <ele>16.96</ele>
        <time>2014-04-02T15:36:26Z</time>
      </trkpt>
      <trkpt lat="45.8982" lon="-0.95198">
        <ele>15.52</ele>
        <time>2014-04-02T15:36:36Z</time>
      </trkpt>
      <trkpt lat="45.89822" lon="-0.95214">
        <ele>16</ele>
        <time>2014-04-02T15:36:45Z</time>
      </trkpt>
      <trkpt lat="45.89821" lon="-0.95229">
        <ele>16.48</ele>
        <time>2014-04-02T15:37:06Z</time>
      </trkpt>
      <trkpt lat="45.89818" lon="-0.95243">
        <ele>16</ele>
        <time>2014-04-02T15:37:14Z</time>
      </trkpt>
      <trkpt lat="45.89816" lon="-0.95258">
        <ele>16.48</ele>
        <time>2014-04-02T15:37:23Z</time>
      </trkpt>
      <trkpt lat="45.89815" lon="-0.95276">
        <ele>17.44</ele>
        <time>2014-04-02T15:37:32Z</time>
      </trkpt>
      <trkpt lat="45.89818" lon="-0.95291">
        <ele>16.96</ele>
        <time>2014-04-02T15:37:40Z</time>
      </trkpt>
      <trkpt lat="45.89821" lon="-0.95305">
        <ele>16.96</ele>
        <time>2014-04-02T15:37:50Z</time>
      </trkpt>
      <trkpt lat="45.89825" lon="-0.95315">
        <ele>17.44</ele>
        <time>2014-04-02T15:38:05Z</time>
      </trkpt>
      <trkpt lat="45.8983" lon="-0.95324">
        <ele>17.44</ele>
        <time>2014-04-02T15:39:32Z</time>
      </trkpt>
      <trkpt lat="45.89833" lon="-0.95339">
        <ele>17.44</ele>
        <time>2014-04-02T15:39:42Z</time>
      </trkpt>
      <trkpt lat="45.89836" lon="-0.95354">
        <ele>17.44</ele>
        <time>2014-04-02T15:39:54Z</time>
      </trkpt>
      <trkpt lat="45.89833" lon="-0.95373">
        <ele>17.44</ele>
        <time>2014-04-02T15:40:02Z</time>
      </trkpt>
      <trkpt lat="45.89837" lon="-0.95385">
        <ele>17.44</ele>
        <time>2014-04-02T15:40:12Z</time>
      </trkpt>
      <trkpt lat="45.89838" lon="-0.95404">
        <ele>17.92</ele>
        <time>2014-04-02T15:40:22Z</time>
      </trkpt>
      <trkpt lat="45.89837" lon="-0.9542">
        <ele>18.4</ele>
        <time>2014-04-02T15:40:30Z</time>
      </trkpt>
      <trkpt lat="45.89838" lon="-0.95435">
        <ele>17.92</ele>
        <time>2014-04-02T15:40:40Z</time>
      </trkpt>
      <trkpt lat="45.89839" lon="-0.95451">
        <ele>17.92</ele>
        <time>2014-04-02T15:40:49Z</time>
      </trkpt>
      <trkpt lat="45.89838" lon="-0.95466">
        <ele>18.4</ele>
        <time>2014-04-02T15:41:00Z</time>
      </trkpt>
      <trkpt lat="45.89837" lon="-0.9548">
        <ele>18.4</ele>
        <time>2014-04-02T15:41:08Z</time>
      </trkpt>
      <trkpt lat="45.89836" lon="-0.95499">
        <ele>18.4</ele>
        <time>2014-04-02T15:41:19Z</time>
      </trkpt>
      <trkpt lat="45.89828" lon="-0.95506">
        <ele>18.4</ele>
        <time>2014-04-02T15:41:31Z</time>
      </trkpt>
      <trkpt lat="45.89818" lon="-0.95507">
        <ele>18.88</ele>
        <time>2014-04-02T15:41:43Z</time>
      </trkpt>
    </trkseg>
  </trk>
</gpx>